M I D A S
Marine Information and Data Acquisition System
Tripno 734 of the Zeeleeuw from 2004-06-11 06:30:01 to 2004-06-11 14:35:07
Back to CruiseResearch ActivitiesStationsMapUnderway DataData graphs

EquipmentUnitsComment
TimeDGPSUTC
LatitudeDGPSDM.mWGS84
LongitudeDGPSDM.mWGS84
TemperatureSBE03/SBE38deg celciusITS90
ConductivitySBE21S/mITS90
SalinitySBE21 Practical Salinity Units
ChlorophylAChelsea fluorimeterg/lCalibrated in Aceton
Missing or incorrect values are displayed as -999
Sea surface data collected by the RV Zeeleeuw from 2004-06-11 06:30:01 to 2004-06-11 14:35:07
                                                                                    Next 1000 lines
Time Latitude Longitude Temperature Conductivity Salinity ChlorophylA
2004-06-11 06:30:09 51°14.064 2°55.485 18.519437 3.519679 25.591417 13.511537
2004-06-11 06:30:14 51°14.074 2°55.476 18.534851 3.510618 25.521129 13.410409
2004-06-11 06:30:19 51°14.084 2°55.468 18.52514 3.494921 25.399208 13.410409
2004-06-11 06:30:23 51°14.092 2°55.461 18.52514 3.494921 25.399208 13.410409
2004-06-11 06:30:29 51°14.105 2°55.45 18.54047 3.479751 25.279375 13.410409
2004-06-11 06:30:34 51°14.116 2°55.441 18.521751 3.462158 25.138385 13.3767
2004-06-11 06:30:39 51°14.127 2°55.431 18.555839 3.448147 25.024959 13.444118
2004-06-11 06:30:43 51°14.137 2°55.423 18.576366 3.436665 24.928015 13.511537
2004-06-11 06:30:49 51°14.151 2°55.41 18.570048 3.422865 24.815576 13.612665
2004-06-11 06:30:54 51°14.163 2°55.399 18.570048 3.422865 24.815576 13.612665
2004-06-11 06:30:59 51°14.175 2°55.386 18.586607 3.411383 24.723078 13.713794
2004-06-11 06:31:04 51°14.187 2°55.373 18.563068 3.382838 24.495222 13.814922
2004-06-11 06:31:10 51°14.201 2°55.356 18.54861 3.353345 24.251653 14.017178
2004-06-11 06:31:14 51°14.211 2°55.344 18.519189 3.323854 24.006463 14.084597
2004-06-11 06:31:19 51°14.222 2°55.329 18.496329 3.305844 23.85905 14.253144
2004-06-11 06:31:23 51°14.231 2°55.315 18.496329 3.305844 23.85905 14.253144
2004-06-11 06:31:29 51°14.244 2°55.294 18.46792 3.308056 23.875037 14.286853
2004-06-11 06:31:34 51°14.255 2°55.276 18.429113 3.312269 23.91153 14.320563
2004-06-11 06:31:39 51°14.265 2°55.257 18.419139 3.318377 23.966484 14.421691
2004-06-11 06:31:43 51°14.274 2°55.241 18.401587 3.339758 24.146398 14.387982
2004-06-11 06:31:49 51°14.287 2°55.218 18.400469 3.372094 24.419783 14.4554
2004-06-11 06:31:54 51°14.298 2°55.198 18.400469 3.372094 24.419783 14.4554
2004-06-11 06:31:59 51°14.31 2°55.177 18.38399 3.404642 24.694274 14.4554
2004-06-11 06:32:04 51°14.321 2°55.157 18.38341 3.444777 25.035196 14.48911
2004-06-11 06:32:09 51°14.332 2°55.136 18.351185 3.42255 24.866454 14.556529
2004-06-11 06:32:14 51°14.344 2°55.115 18.305389 3.467531 25.237991 14.522819
2004-06-11 06:32:19 51°14.356 2°55.094 18.263048 3.479541 25.342251 14.556529
2004-06-11 06:32:24 51°14.367 2°55.073 18.263048 3.479541 25.342251 14.556529
2004-06-11 06:32:29 51°14.379 2°55.052 18.218274 3.500084 25.515047 14.623947
2004-06-11 06:32:33 51°14.389 2°55.035 18.208518 3.511041 25.611076 14.691366
2004-06-11 06:32:38 51°14.401 2°55.015 18.155026 3.530532 25.781585 14.657657
2004-06-11 06:32:43 51°14.412 2°54.994 18.142643 3.602811 26.389571 14.725076
2004-06-11 06:32:49 51°14.427 2°54.97 18.140773 3.637794 26.695681 14.725076
2004-06-11 06:32:54 51°14.438 2°54.949 18.140773 3.637794 26.695681 14.725076
2004-06-11 06:32:59 51°14.448 2°54.927 18.132669 3.67731 27.042044 14.758785
2004-06-11 06:33:03 51°14.454 2°54.909 18.093508 3.70197 27.259987 14.691366
2004-06-11 06:33:09 51°14.463 2°54.882 18.051412 3.742438 27.615082 14.725076
2004-06-11 06:33:14 51°14.469 2°54.859 18.009207 3.752029 27.707244 14.792494
2004-06-11 06:33:19 51°14.475 2°54.835 17.983388 3.767205 27.841958 14.792494
2004-06-11 06:33:25 51°14.48 2°54.806 17.983388 3.767205 27.841958 14.792494
2004-06-11 06:33:29 51°14.484 2°54.787 17.958977 3.760882 27.801276 14.758785
2004-06-11 06:33:34 51°14.487 2°54.762 17.952269 3.806307 28.192284 14.623947
2004-06-11 06:33:39 51°14.49 2°54.738 17.931723 3.866808 28.714924 14.590238
2004-06-11 06:33:44 51°14.494 2°54.713 17.931639 3.920251 29.181732 14.556529
2004-06-11 06:33:49 51°14.497 2°54.689 17.929263 3.971905 29.628138 14.48911
2004-06-11 06:33:54 51°14.501 2°54.664 17.929263 3.971905 29.628138 14.48911
2004-06-11 06:33:59 51°14.504 2°54.64 17.91363 3.983924 29.75048 14.4554
2004-06-11 06:34:04 51°14.506 2°54.615 17.895408 4.029467 30.142704 14.4554
2004-06-11 06:34:09 51°14.508 2°54.59 17.900663 4.07048 30.497591 14.320563
2004-06-11 06:34:14 51°14.51 2°54.566 17.902081 4.101794 30.762435 14.387982
2004-06-11 06:34:19 51°14.512 2°54.541 17.905125 4.103375 30.780007 14.4554
2004-06-11 06:34:24 51°14.514 2°54.516 17.905125 4.103375 30.780007 14.4554
2004-06-11 06:34:29 51°14.516 2°54.491 17.884982 4.140174 31.100001 14.725076
2004-06-11 06:34:34 51°14.518 2°54.466 17.896368 4.143443 31.135641 15.06217
2004-06-11 06:34:39 51°14.52 2°54.441 17.888819 4.16063 31.284697 15.264426
2004-06-11 06:34:43 51°14.522 2°54.421 17.876681 4.156939 31.259277 15.331845
2004-06-11 06:34:49 51°14.525 2°54.391 17.859493 4.162001 31.302839 15.264426
2004-06-11 06:34:54 51°14.527 2°54.366 17.859493 4.162001 31.302839 15.264426
2004-06-11 06:34:59 51°14.528 2°54.34 17.856906 4.15831 31.273541 15.197007
2004-06-11 06:35:03 51°14.529 2°54.32 17.844136 4.158205 31.27321 15.095879
2004-06-11 06:35:09 51°14.531 2°54.29 17.842258 4.167484 31.354947 15.163298
2004-06-11 06:35:14 51°14.531 2°54.265 17.838961 4.185515 31.51414 15.331845
2004-06-11 06:35:19 51°14.532 2°54.24 17.842049 4.190682 31.563698 15.365554
2004-06-11 06:35:23 51°14.533 2°54.219 17.842049 4.190682 31.563698 15.365554
2004-06-11 06:35:29 51°14.535 2°54.189 17.838293 4.196587 31.620611 15.432973
2004-06-11 06:35:34 51°14.537 2°54.164 17.836123 4.181614 31.500332 15.500392
2004-06-11 06:35:39 51°14.538 2°54.139 17.837667 4.186465 31.547252 15.567811
2004-06-11 06:35:43 51°14.538 2°54.118 17.841048 4.179189 31.487761 15.668939
2004-06-11 06:35:49 51°14.54 2°54.088 17.834912 4.18172 31.513504 15.60152
2004-06-11 06:35:54 51°14.541 2°54.063 17.834912 4.18172 31.513504 15.60152
2004-06-11 06:35:59 51°14.543 2°54.037 17.828567 4.185727 31.548875 15.668939
2004-06-11 06:36:03 51°14.544 2°54.017 17.831155 4.211562 31.767937 15.63523
2004-06-11 06:36:07 51°14.546 2°53.997 17.822723 4.199224 31.663536 15.63523
2004-06-11 06:36:14 51°14.549 2°53.962 17.82886 4.205235 31.71468 15.668939
2004-06-11 06:36:19 51°14.551 2°53.937 17.827065 4.204707 31.713054 15.702648
2004-06-11 06:36:23 51°14.553 2°53.917 17.827065 4.204707 31.713054 15.702648
2004-06-11 06:36:29 51°14.554 2°53.887 17.824393 4.20186 31.691338 15.60152
2004-06-11 06:36:34 51°14.555 2°53.862 17.828066 4.212511 31.784382 15.534101
2004-06-11 06:36:39 51°14.556 2°53.837 17.814707 4.210085 31.766212 15.534101
2004-06-11 06:36:43 51°14.556 2°53.818 17.807066 4.206817 31.739249 15.567811
2004-06-11 06:36:49 51°14.556 2°53.788 17.806481 4.18889 31.588361 15.770067
2004-06-11 06:36:54 51°14.556 2°53.763 17.806481 4.18889 31.588361 15.770067
2004-06-11 06:36:59 51°14.556 2°53.739 17.795039 4.195534 31.644827 16.17458
2004-06-11 06:37:04 51°14.556 2°53.714 17.788273 4.206289 31.735936 16.309418
2004-06-11 06:37:09 51°14.556 2°53.689 17.780295 4.193425 31.632128 16.208289
2004-06-11 06:37:14 51°14.556 2°53.665 17.778708 4.191421 31.620314 15.972324
2004-06-11 06:37:19 51°14.556 2°53.64 17.778624 4.21462 31.818512 15.668939
2004-06-11 06:37:23 51°14.556 2°53.621 17.778624 4.21462 31.818512 15.668939
2004-06-11 06:37:29 51°14.557 2°53.591 17.776452 4.223373 31.898504 15.534101
2004-06-11 06:37:34 51°14.557 2°53.567 17.772399 4.223584 31.90538 15.365554
2004-06-11 06:37:39 51°14.557 2°53.542 17.767762 4.241194 32.060761 15.298136
2004-06-11 06:37:43 51°14.557 2°53.522 17.76116 4.242038 32.07016 15.298136
2004-06-11 06:37:49 51°14.556 2°53.493 17.763041 4.242671 32.076071 15.230717
2004-06-11 06:37:54 51°14.555 2°53.468 17.763041 4.242671 32.076071 15.230717
2004-06-11 06:37:59 51°14.555 2°53.443 17.759071 4.243303 32.083692 15.230717
2004-06-11 06:38:03 51°14.555 2°53.423 17.76396 4.244569 32.098367 15.298136
2004-06-11 06:38:09 51°14.557 2°53.395 17.762915 4.244147 32.097087 15.365554
2004-06-11 06:38:14 51°14.561 2°53.372 17.780587 4.2471 32.12716 15.365554
2004-06-11 06:38:19 51°14.566 2°53.352 17.79554 4.247416 32.130403 15.432973
2004-06-11 06:38:24 51°14.571 2°53.334 17.79554 4.247416 32.130403 15.432973
2004-06-11 06:38:29 51°14.577 2°53.32 17.754809 4.243304 32.095098 15.63523
2004-06-11 06:38:34 51°14.584 2°53.307 17.765004 4.248365 32.138991 15.904905
2004-06-11 06:38:39 51°14.591 2°53.296 17.750463 4.247838 32.131682 16.208289
2004-06-11 06:38:43 51°14.597 2°53.288 17.749543 4.246467 32.115536 16.477965
2004-06-11 06:38:49 51°14.606 2°53.278 17.748582 4.245834 32.107911 16.815059
2004-06-11 06:38:54 51°14.613 2°53.272 17.748582 4.245834 32.107911 16.815059
2004-06-11 06:38:58 51°14.619 2°53.268 17.732198 4.248682 32.138807 17.118443
2004-06-11 06:39:03 51°14.625 2°53.264 17.728812 4.245202 32.109416 17.219571
2004-06-11 06:39:09 51°14.633 2°53.26 17.724924 4.249736 32.152858 17.219571
2004-06-11 06:39:14 51°14.639 2°53.258 17.724715 4.248682 32.149665 17.084734
2004-06-11 06:39:19 51°14.645 2°53.256 17.718151 4.248471 32.150742 16.848768
2004-06-11 06:39:22 51°14.648 2°53.256 17.718151 4.248471 32.150742 16.848768
2004-06-11 06:39:29 51°14.655 2°53.256 17.724757 4.248893 32.160598 16.71393
2004-06-11 06:39:34 51°14.661 2°53.256 17.727139 4.250053 32.175553 16.444255
2004-06-11 06:39:39 51°14.665 2°53.257 17.730818 4.25058 32.182873 16.208289
2004-06-11 06:39:43 51°14.669 2°53.258 17.736002 4.249737 32.18204 15.938614
2004-06-11 06:39:49 51°14.675 2°53.26 17.731529 4.249948 32.184969 15.60152
2004-06-11 06:39:54 51°14.679 2°53.262 17.731529 4.249948 32.184969 15.60152
2004-06-11 06:39:59 51°14.684 2°53.264 17.723879 4.249104 32.17669 15.500392
2004-06-11 06:40:04 51°14.688 2°53.265 17.725425 4.248893 32.174907 15.399264
2004-06-11 06:40:09 51°14.693 2°53.268 17.724004 4.248893 32.173189 15.365554
2004-06-11 06:40:14 51°14.697 2°53.269 17.733828 4.248577 32.169369 15.365554
2004-06-11 06:40:19 51°14.701 2°53.271 17.730818 4.247944 32.163447 15.432973
2004-06-11 06:40:23 51°14.704 2°53.273 17.730818 4.247944 32.163447 15.432973
2004-06-11 06:40:29 51°14.709 2°53.275 17.732407 4.248366 32.169303 15.399264
2004-06-11 06:40:34 51°14.713 2°53.278 17.731362 4.24805 32.167773 15.534101
2004-06-11 06:40:39 51°14.717 2°53.28 17.733368 4.248155 32.16981 15.60152
2004-06-11 06:40:43 51°14.72 2°53.282 17.733452 4.247944 32.165737 15.736358
2004-06-11 06:40:49 51°14.724 2°53.284 17.743191 4.247733 32.162809 15.904905
2004-06-11 06:40:54 51°14.728 2°53.286 17.743191 4.247733 32.162809 15.904905
2004-06-11 06:40:59 51°14.731 2°53.288 17.740725 4.247522 32.160453 16.073452
2004-06-11 06:41:04 51°14.735 2°53.291 17.73713 4.247417 32.158417 16.073452
2004-06-11 06:41:09 51°14.738 2°53.293 17.734664 4.247944 32.164019 16.006033
2004-06-11 06:41:14 51°14.741 2°53.295 17.739011 4.247628 32.159628 15.972324
2004-06-11 06:41:19 51°14.745 2°53.297 17.733744 4.247838 32.157977 15.938614
2004-06-11 06:41:23 51°14.747 2°53.299 17.733744 4.247838 32.157977 15.938614
2004-06-11 06:41:29 51°14.751 2°53.301 17.731821 4.249315 32.169885 15.972324
2004-06-11 06:41:35 51°14.754 2°53.304 17.728812 4.248366 32.163579 15.837486
2004-06-11 06:41:40 51°14.757 2°53.305 17.728519 4.249315 32.17332 15.736358
2004-06-11 06:41:44 51°14.76 2°53.307 17.728352 4.249842 32.177205 15.837486
2004-06-11 06:41:50 51°14.763 2°53.309 17.727307 4.250159 32.181025 15.871195
2004-06-11 06:41:54 51°14.766 2°53.311 17.727307 4.250159 32.181025 15.871195
2004-06-11 06:41:59 51°14.768 2°53.313 17.728059 4.250791 32.18752 15.736358
2004-06-11 06:42:04 51°14.771 2°53.315 17.731445 4.251002 32.191022 15.702648
2004-06-11 06:42:09 51°14.774 2°53.316 17.730526 4.251319 32.192551 15.702648
2004-06-11 06:42:14 51°14.776 2°53.319 17.728477 4.25174 32.197837 15.770067
2004-06-11 06:42:18 51°14.778 2°53.321 17.73203 4.25174 32.200703 15.736358
2004-06-11 06:42:23 51°14.78 2°53.323 17.73203 4.25174 32.200703 15.736358
2004-06-11 06:42:30 51°14.784 2°53.326 17.729397 4.25174 32.198983 15.770067
2004-06-11 06:42:34 51°14.786 2°53.328 17.73249 4.252373 32.204334 15.837486
2004-06-11 06:42:39 51°14.788 2°53.331 17.734622 4.184674 31.63257 15.938614
2004-06-11 06:42:43 51°14.79 2°53.333 17.727474 4.184463 31.629666 15.904905
2004-06-11 06:42:49 51°14.793 2°53.335 17.727474 4.222635 31.951857 15.972324
2004-06-11 06:42:54 51°14.796 2°53.338 17.727474 4.222635 31.951857 15.972324
2004-06-11 06:42:59 51°14.798 2°53.341 17.728561 4.186466 31.647127 16.073452
2004-06-11 06:43:03 51°14.8 2°53.343 17.726638 4.197433 31.739084 16.039742
2004-06-11 06:43:09 51°14.803 2°53.346 17.729104 4.204814 31.801946 16.140871
2004-06-11 06:43:14 51°14.805 2°53.348 17.728226 4.209138 31.837877 16.039742
2004-06-11 06:43:19 51°14.807 2°53.351 17.728226 4.204603 31.800166 16.140871
2004-06-11 06:43:23 51°14.809 2°53.353 17.728226 4.204603 31.800166 16.140871
2004-06-11 06:43:30 51°14.812 2°53.357 17.726429 4.208189 31.832697 16.208289
2004-06-11 06:43:34 51°14.814 2°53.359 17.72484 4.218839 31.922634 16.208289
2004-06-11 06:43:39 51°14.816 2°53.361 17.7253 4.226748 31.989444 16.208289
2004-06-11 06:43:43 51°14.818 2°53.363 17.724255 4.215359 31.893245 16.241999
2004-06-11 06:43:49 51°14.82 2°53.366 17.728937 4.184463 31.630791 16.241999
2004-06-11 06:43:54 51°14.823 2°53.369 17.728937 4.184463 31.630791 16.241999
2004-06-11 06:43:59 51°14.825 2°53.372 17.730066 4.185201 31.639269 16.309418
2004-06-11 06:44:03 51°14.826 2°53.374 17.727098 4.230755 32.023873 16.410546
2004-06-11 06:44:09 51°14.829 2°53.377 17.729481 4.142813 31.28256 16.376836
2004-06-11 06:44:14 51°14.831 2°53.38 17.725551 4.252479 32.208665 16.376836
2004-06-11 06:44:19 51°14.833 2°53.382 17.726554 4.252795 32.210194 16.444255
2004-06-11 06:44:23 51°14.834 2°53.384 17.726554 4.252795 32.210194 16.444255
2004-06-11 06:44:29 51°14.837 2°53.388 17.728644 4.253322 32.212934 16.410546
2004-06-11 06:44:34 51°14.839 2°53.39 17.726178 4.253111 32.211723 16.477965
2004-06-11 06:44:39 51°14.841 2°53.393 17.727516 4.253217 32.212615 16.376836
2004-06-11 06:44:43 51°14.842 2°53.395 17.72739 4.253217 32.213762 16.376836
2004-06-11 06:44:49 51°14.845 2°53.398 17.725007 4.253533 32.216438 16.376836
2004-06-11 06:44:54 51°14.847 2°53.401 17.725007 4.253533 32.216438 16.376836
2004-06-11 06:44:59 51°14.849 2°53.403 17.729272 4.25269 32.208729 16.444255
2004-06-11 06:45:03 51°14.85 2°53.405 17.725384 4.252795 32.209621 16.343127
2004-06-11 06:45:09 51°14.853 2°53.408 17.728519 4.252162 32.205416 16.511674
2004-06-11 06:45:14 51°14.854 2°53.411 17.727767 4.252479 32.207519 16.477965
2004-06-11 06:45:19 51°14.856 2°53.414 17.725216 4.252479 32.208665 16.343127
2004-06-11 06:45:23 51°14.858 2°53.416 17.725216 4.252479 32.208665 16.343127
2004-06-11 06:45:29 51°14.86 2°53.42 17.731571 4.252479 32.208665 16.309418
2004-06-11 06:45:34 51°14.862 2°53.423 17.730776 4.253111 32.214017 16.343127
2004-06-11 06:45:39 51°14.864 2°53.425 17.728352 4.25269 32.209876 16.309418
2004-06-11 06:45:43 51°14.865 2°53.428 17.72785 4.253006 32.212552 16.241999
2004-06-11 06:45:49 51°14.868 2°53.431 17.730693 4.252479 32.207519 16.241999
2004-06-11 06:45:54 51°14.87 2°53.434 17.730693 4.252479 32.207519 16.241999
2004-06-11 06:45:59 51°14.872 2°53.437 17.728979 4.253006 32.211405 16.241999
2004-06-11 06:46:03 51°14.873 2°53.439 17.733326 4.253006 32.210831 16.275708
2004-06-11 06:46:09 51°14.875 2°53.443 17.731947 4.25406 32.219177 16.140871
2004-06-11 06:46:14 51°14.877 2°53.445 17.731362 4.2529 32.20994 16.17458
2004-06-11 06:46:19 51°14.879 2°53.449 17.733619 4.24826 32.171274 16.140871
2004-06-11 06:46:23 51°14.88 2°53.451 17.733619 4.24826 32.171274 16.140871
2004-06-11 06:46:29 51°14.883 2°53.455 17.736002 4.250791 32.190957 16.208289
2004-06-11 06:46:33 51°14.884 2°53.457 17.737214 4.249948 32.184396 16.17458
2004-06-11 06:46:39 51°14.887 2°53.46 17.741017 4.25037 32.187963 16.17458
2004-06-11 06:46:43 51°14.888 2°53.462 17.742062 4.250897 32.191276 16.17458
2004-06-11 06:46:50 51°14.891 2°53.467 17.746952 4.25058 32.189174 16.17458
2004-06-11 06:46:54 51°14.892 2°53.469 17.746952 4.25058 32.189174 16.17458
2004-06-11 06:46:59 51°14.894 2°53.472 17.74411 4.251951 32.200767 16.208289
2004-06-11 06:47:03 51°14.895 2°53.474 17.748666 4.25058 32.187455 16.208289
2004-06-11 06:47:09 51°14.898 2°53.477 17.756021 4.252162 32.199685 16.039742
2004-06-11 06:47:14 51°14.9 2°53.48 17.754433 4.253006 32.20338 16.039742
2004-06-11 06:47:19 51°14.902 2°53.483 17.762581 4.253217 32.202872 18.803913
2004-06-11 06:47:23 51°14.903 2°53.485 17.762581 4.253217 32.202872 18.803913
2004-06-11 06:47:27 51°14.905 2°53.487 17.762163 4.249737 32.171161 16.006033
2004-06-11 06:47:34 51°14.91 2°53.489 17.763041 4.247838 32.153973 16.073452
2004-06-11 06:47:39 51°14.913 2°53.49 17.75857 4.242777 32.107197 16.039742
2004-06-11 06:47:44 51°14.918 2°53.489 17.759071 4.249842 32.165186 16.039742
2004-06-11 06:47:50 51°14.923 2°53.486 17.759656 4.250475 32.168817 16.006033
2004-06-11 06:47:55 51°14.927 2°53.482 17.759656 4.250475 32.168817 16.006033
2004-06-11 06:48:00 51°14.932 2°53.477 17.762288 4.252795 32.185562 16.039742
2004-06-11 06:48:03 51°14.934 2°53.473 17.757274 4.248049 32.144891 16.039742
2004-06-11 06:48:10 51°14.939 2°53.462 17.748958 4.253744 32.19301 16.107161
2004-06-11 06:48:15 51°14.943 2°53.453 17.750546 4.253638 32.193264 16.140871
2004-06-11 06:48:19 51°14.945 2°53.444 17.746576 4.250053 32.162964 16.039742
2004-06-11 06:48:22 51°14.946 2°53.436 17.746576 4.250053 32.162964 16.039742
2004-06-11 06:48:29 51°14.948 2°53.417 17.741644 4.249736 32.160863 16.073452
2004-06-11 06:48:34 51°14.948 2°53.401 17.73667 4.249631 32.161688 16.140871
2004-06-11 06:48:39 51°14.947 2°53.385 17.733912 4.250475 32.17225 16.140871
2004-06-11 06:48:43 51°14.945 2°53.372 17.734413 4.253322 32.197462 16.208289
2004-06-11 06:48:49 51°14.941 2°53.351 17.734873 4.250369 32.174793 16.309418
2004-06-11 06:48:54 51°14.938 2°53.333 17.734873 4.250369 32.174793 16.309418
2004-06-11 06:48:59 51°14.934 2°53.315 17.731153 4.246046 32.142252 16.275708
2004-06-11 06:49:04 51°14.931 2°53.295 17.738175 4.247628 32.156767 16.410546
2004-06-11 06:49:09 51°14.928 2°53.276 17.746409 4.246257 32.148039 16.477965
2004-06-11 06:49:14 51°14.926 2°53.256 17.739011 4.247839 32.163128 16.477965
2004-06-11 06:49:19 51°14.924 2°53.235 17.728226 4.247628 32.160772 16.511674
2004-06-11 06:49:23 51°14.922 2°53.218 17.728226 4.247628 32.160772 16.511674
2004-06-11 06:49:29 51°14.92 2°53.192 17.729021 4.24478 32.136702 16.680221
2004-06-11 06:49:34 51°14.919 2°53.171 17.743358 4.244359 32.130278 16.781349
2004-06-11 06:49:39 51°14.917 2°53.149 17.729522 4.244464 32.130026 16.781349
2004-06-11 06:49:43 51°14.916 2°53.131 17.719823 4.249315 32.172175 16.815059
2004-06-11 06:49:49 51°14.915 2°53.104 17.72045 4.243093 32.123011 16.848768
2004-06-11 06:49:54 51°14.914 2°53.082 17.72045 4.243093 32.123011 16.848768
2004-06-11 06:49:59 51°14.913 2°53.06 17.725885 4.243726 32.130647 16.848768
2004-06-11 06:50:03 51°14.912 2°53.042 17.725509 4.244886 32.137022 16.882477
2004-06-11 06:50:09 51°14.91 2°53.014 17.723879 4.243831 32.128679 16.916187
2004-06-11 06:50:14 51°14.909 2°52.992 17.727976 4.246679 32.157327 16.882477
2004-06-11 06:50:19 51°14.908 2°52.969 17.725384 4.245624 32.150127 16.983606
2004-06-11 06:50:24 51°14.906 2°52.946 17.725384 4.245624 32.150127 16.983606
2004-06-11 06:50:29 51°14.905 2°52.924 17.725969 4.243515 32.131723 17.051024
2004-06-11 06:50:34 51°14.904 2°52.901 17.721705 4.244886 32.144458 17.219571
2004-06-11 06:50:38 51°14.903 2°52.883 17.717106 4.245624 32.150699 17.219571
2004-06-11 06:50:43 51°14.902 2°52.86 17.725049 4.245097 32.145669 17.354409
2004-06-11 06:50:49 51°14.901 2°52.833 17.722959 4.239086 32.095424 17.388118
2004-06-11 06:50:54 51°14.9 2°52.811 17.722959 4.239086 32.095424 17.388118
2004-06-11 06:50:59 51°14.899 2°52.788 17.731445 4.240984 32.110898 17.489247
2004-06-11 06:51:03 51°14.898 2°52.77 17.72576 4.240562 32.109047 17.522956
2004-06-11 06:51:09 51°14.896 2°52.743 17.729648 4.241301 32.115859 17.522956
2004-06-11 06:51:14 51°14.895 2°52.721 17.731153 4.241511 32.117071 17.489247
2004-06-11 06:51:19 51°14.894 2°52.698 17.726847 4.241722 32.118854 17.522956
2004-06-11 06:51:23 51°14.893 2°52.68 17.726847 4.241722 32.118854 17.522956
2004-06-11 06:51:29 51°14.892 2°52.653 17.726847 4.243515 32.133439 17.489247
2004-06-11 06:51:34 51°14.89 2°52.63 17.727558 4.24341 32.130832 17.489247
2004-06-11 06:51:39 51°14.889 2°52.608 17.721161 4.240668 32.107653 17.421828
2004-06-11 06:51:43 51°14.888 2°52.589 17.724004 4.239824 32.09995 17.388118
2004-06-11 06:51:49 51°14.886 2°52.562 17.71351 4.236977 32.075312 17.421828
2004-06-11 06:51:54 51°14.885 2°52.54 17.71351 4.236977 32.075312 17.421828
2004-06-11 06:51:59 51°14.884 2°52.517 17.711461 4.245413 32.146627 17.489247
2004-06-11 06:52:03 51°14.883 2°52.499 17.707028 4.236133 32.069324 17.455537
2004-06-11 06:52:09 51°14.881 2°52.472 17.700923 4.237926 32.086189 17.489247
2004-06-11 06:52:14 51°14.88 2°52.449 17.692224 4.237082 32.080771 17.489247
2004-06-11 06:52:19 51°14.879 2°52.426 17.696197 4.243937 32.142155 17.489247
2004-06-11 06:52:23 51°14.878 2°52.408 17.696197 4.243937 32.142155 17.489247
2004-06-11 06:52:29 51°14.877 2°52.38 17.690885 4.241723 32.125716 17.489247
2004-06-11 06:52:34 51°14.876 2°52.358 17.687288 4.238137 32.097685 17.522956
2004-06-11 06:52:39 51°14.874 2°52.335 17.683105 4.238032 32.101938 17.489247
2004-06-11 06:52:44 51°14.873 2°52.312 17.682143 4.240563 32.126776 17.421828
2004-06-11 06:52:49 51°14.872 2°52.29 17.680344 4.239086 32.117148 17.354409
2004-06-11 06:52:54 51°14.871 2°52.267 17.680344 4.239086 32.117148 17.354409
2004-06-11 06:52:59 51°14.869 2°52.244 17.682979 4.235185 32.086431 17.3207
2004-06-11 06:53:03 51°14.868 2°52.226 17.688836 4.240036 32.130328 17.28699
2004-06-11 06:53:09 51°14.867 2°52.199 17.690132 4.240247 32.136121 17.388118
2004-06-11 06:53:14 51°14.866 2°52.176 17.682226 4.243516 32.163785 17.28699
2004-06-11 06:53:19 51°14.865 2°52.153 17.685364 4.243621 32.165824 17.253281
2004-06-11 06:53:23 51°14.864 2°52.135 17.685364 4.243621 32.165824 17.253281
2004-06-11 06:53:29 51°14.863 2°52.107 17.688501 4.243727 32.16729 17.219571
2004-06-11 06:53:34 51°14.862 2°52.084 17.683649 4.24457 32.173856 17.084734
2004-06-11 06:53:39 51°14.86 2°52.062 17.685824 4.228225 32.033847 17.051024
2004-06-11 06:53:43 51°14.859 2°52.043 17.681975 4.245519 32.181316 17.017315
2004-06-11 06:53:49 51°14.858 2°52.016 17.675868 4.246257 32.187564 16.916187
2004-06-11 06:53:54 51°14.857 2°51.993 17.675868 4.246257 32.187564 16.916187
2004-06-11 06:53:59 51°14.855 2°51.97 17.679591 4.239403 32.129554 16.882477
2004-06-11 06:54:04 51°14.854 2°51.947 17.678629 4.247101 32.194705 16.882477
2004-06-11 06:54:09 51°14.853 2°51.924 17.676997 4.245519 32.180742 16.882477
2004-06-11 06:54:13 51°14.852 2°51.906 17.6757 4.24457 32.175003 16.882477
2004-06-11 06:54:18 51°14.851 2°51.883 17.676077 4.241512 32.150839 16.781349
2004-06-11 06:54:23 51°14.85 2°51.86 17.676077 4.241512 32.150839 16.781349
2004-06-11 06:54:29 51°14.848 2°51.833 17.675951 4.23645 32.109148 16.781349
2004-06-11 06:54:34 51°14.847 2°51.81 17.670387 4.248894 32.215046 16.74764
2004-06-11 06:54:39 51°14.846 2°51.787 17.670847 4.243938 32.173088 16.71393
2004-06-11 06:54:43 51°14.845 2°51.769 17.671224 4.251847 32.241196 16.646512
2004-06-11 06:54:49 51°14.844 2°51.741 17.672186 4.246679 32.19802 16.71393
2004-06-11 06:54:54 51°14.843 2°51.718 17.672186 4.246679 32.19802 16.71393
2004-06-11 06:54:59 51°14.842 2°51.696 17.664404 4.252901 32.25185 16.680221
2004-06-11 06:55:03 51°14.841 2°51.677 17.660721 4.253745 32.26072 16.579093
2004-06-11 06:55:09 51°14.839 2°51.65 17.660889 4.254061 32.263975 16.579093
2004-06-11 06:55:13 51°14.838 2°51.633 17.660721 4.248683 32.218429 16.579093
2004-06-11 06:55:18 51°14.837 2°51.614 17.657667 4.255432 32.276161 16.781349
2004-06-11 06:55:25 51°14.834 2°51.591 17.657667 4.255432 32.276161 16.781349
2004-06-11 06:55:29 51°14.832 2°51.58 17.656495 4.255749 32.281143 16.882477
2004-06-11 06:55:34 51°14.829 2°51.567 17.65775 4.253323 32.262324 16.983606
2004-06-11 06:55:39 51°14.826 2°51.556 17.660052 4.243094 32.177418 17.017315
2004-06-11 06:55:43 51°14.823 2°51.548 17.655574 4.256487 32.292579 17.118443
2004-06-11 06:55:49 51°14.819 2°51.538 17.654026 4.250371 32.242489 17.084734
2004-06-11 06:55:54 51°14.816 2°51.53 17.654026 4.250371 32.242489 17.084734
2004-06-11 06:55:59 51°14.813 2°51.523 17.653691 4.255538 32.286841 17.084734
2004-06-11 06:56:04 51°14.809 2°51.516 17.656788 4.258174 32.309755 17.084734
2004-06-11 06:56:09 51°14.806 2°51.511 17.656997 4.261971 32.342504 16.983606
2004-06-11 06:56:14 51°14.802 2°51.506 17.654612 4.263025 32.352019 16.916187
2004-06-11 06:56:19 51°14.799 2°51.501 17.655407 4.260705 32.334087 16.815059
2004-06-11 06:56:23 51°14.796 2°51.497 17.655407 4.260705 32.334087 16.815059
2004-06-11 06:56:29 51°14.792 2°51.493 17.654361 4.251636 32.257236 16.815059
2004-06-11 06:56:34 51°14.789 2°51.489 17.651975 4.254167 32.279256 16.71393
2004-06-11 06:56:39 51°14.786 2°51.486 17.648753 4.259334 32.321891 16.646512
2004-06-11 06:56:44 51°14.783 2°51.482 17.651557 4.262076 32.344552 16.612802
2004-06-11 06:56:49 51°14.78 2°51.479 17.650134 4.266083 32.379096 16.579093
2004-06-11 06:56:53 51°14.777 2°51.477 17.650134 4.266083 32.379096 16.579093
2004-06-11 06:56:59 51°14.774 2°51.474 17.650134 4.258912 32.318317 16.612802
2004-06-11 06:57:04 51°14.772 2°51.472 17.648627 4.269247 32.407073 16.545383
2004-06-11 06:57:09 51°14.769 2°51.47 17.648836 4.26756 32.394501 16.511674
2004-06-11 06:57:14 51°14.766 2°51.468 17.653942 4.269142 32.408491 16.511674
2004-06-11 06:57:19 51°14.764 2°51.465 17.655658 4.264607 32.369468 16.444255
2004-06-11 06:57:23 51°14.762 2°51.464 17.655658 4.264607 32.369468 16.444255
2004-06-11 06:57:29 51°14.76 2°51.462 17.65185 4.270513 32.420115 16.444255
2004-06-11 06:57:34 51°14.757 2°51.46 17.660136 4.267876 32.397761 16.545383
2004-06-11 06:57:39 51°14.755 2°51.459 17.660387 4.256592 32.30269 16.444255
2004-06-11 06:57:43 51°14.754 2°51.457 17.662144 4.265978 32.380513 16.410546
2004-06-11 06:57:49 51°14.752 2°51.456 17.661642 4.265556 32.375204 16.376836
2004-06-11 06:57:54 51°14.75 2°51.454 17.661642 4.265556 32.375204 16.376836
2004-06-11 06:57:59 51°14.748 2°51.453 17.65796 4.270829 32.421063 16.376836
2004-06-11 06:58:04 51°14.746 2°51.451 17.656411 4.264185 32.363583 16.477965
2004-06-11 06:58:09 51°14.744 2°51.449 17.660429 4.270618 32.417539 16.545383
2004-06-11 06:58:14 51°14.742 2°51.446 17.671056 4.267349 32.388091 16.511674
2004-06-11 06:58:19 51°14.74 2°51.444 17.668588 4.267138 32.386303 16.511674
2004-06-11 06:58:24 51°14.738 2°51.441 17.668588 4.267138 32.386303 16.511674
2004-06-11 06:58:29 51°14.737 2°51.439 17.665324 4.262814 32.349078 16.477965
2004-06-11 06:58:34 51°14.735 2°51.435 17.665324 4.26988 32.409546 16.511674
2004-06-11 06:58:39 51°14.733 2°51.432 17.665073 4.26988 32.407812 16.511674
2004-06-11 06:58:43 51°14.732 2°51.429 17.662521 4.271567 32.418647 16.511674
2004-06-11 06:58:49 51°14.731 2°51.423 17.662772 4.263869 32.351668 16.545383
2004-06-11 06:58:54 51°14.729 2°51.419 17.662772 4.263869 32.351668 16.545383
2004-06-11 06:58:59 51°14.728 2°51.414 17.667542 4.268825 32.395406 16.646512
2004-06-11 06:59:03 51°14.727 2°51.41 17.664278 4.255538 32.282235 16.646512
2004-06-11 06:59:09 51°14.727 2°51.404 17.665533 4.264501 32.358761 16.646512
2004-06-11 06:59:14 51°14.726 2°51.398 17.668755 4.265556 32.368853 16.680221
2004-06-11 06:59:19 51°14.726 2°51.393 17.664194 4.26524 32.366171 16.71393
2004-06-11 06:59:25 51°14.725 2°51.386 17.664194 4.26524 32.366171 16.71393
2004-06-11 06:59:29 51°14.725 2°51.381 17.664697 4.268614 32.393618 16.612802
2004-06-11 06:59:34 51°14.724 2°51.375 17.664487 4.257858 32.303042 16.612802
2004-06-11 06:59:39 51°14.724 2°51.369 17.662479 4.267454 32.383208 16.680221
2004-06-11 06:59:43 51°14.723 2°51.365 17.66545 4.256065 32.286126 16.612802
2004-06-11 06:59:49 51°14.722 2°51.357 17.672646 4.264607 32.359655 16.680221
2004-06-11 06:59:54 51°14.721 2°51.351 17.672646 4.264607 32.359655 16.680221
2004-06-11 06:59:59 51°14.72 2°51.346 17.669927 4.265872 32.369802 16.71393
2004-06-11 07:00:03 51°14.719 2°51.341 17.673399 4.259756 32.319125 16.74764
2004-06-11 07:00:09 51°14.718 2°51.334 17.6716 4.264501 32.359915 16.781349
2004-06-11 07:00:14 51°14.716 2°51.328 17.670261 4.262709 32.343569 16.781349
2004-06-11 07:00:19 51°14.715 2°51.323 17.668881 4.26313 32.344836 16.815059
2004-06-11 07:00:23 51°14.713 2°51.318 17.668881 4.26313 32.344836 16.815059
2004-06-11 07:00:29 51°14.711 2°51.311 17.668588 4.265872 32.367493 16.848768
2004-06-11 07:00:34 51°14.709 2°51.305 17.675031 4.26524 32.361554 16.781349
2004-06-11 07:00:39 51°14.707 2°51.3 17.671056 4.263552 32.347257 16.71393
2004-06-11 07:00:43 51°14.705 2°51.296 17.673609 4.258279 32.302007 16.74764
2004-06-11 07:00:49 51°14.703 2°51.289 17.673483 4.271251 32.413075 16.680221
2004-06-11 07:00:54 51°14.7 2°51.284 17.673483 4.271251 32.413075 16.680221
2004-06-11 07:00:59 51°14.698 2°51.279 17.670303 4.254061 32.266851 16.646512
2004-06-11 07:01:04 51°14.696 2°51.275 17.669634 4.26176 32.330914 16.579093
2004-06-11 07:01:08 51°14.694 2°51.272 17.667793 4.269036 32.391994 16.545383
2004-06-11 07:01:15 51°14.691 2°51.265 17.674905 4.26988 32.398566 16.477965
2004-06-11 07:01:18 51°14.689 2°51.263 17.67114 4.267349 32.377695 16.410546
2004-06-11 07:01:25 51°14.686 2°51.257 17.67114 4.267349 32.377695 16.410546
2004-06-11 07:01:30 51°14.684 2°51.252 17.673609 4.271567 32.413445 16.343127
2004-06-11 07:01:34 51°14.682 2°51.249 17.678922 4.271778 32.414076 16.343127
2004-06-11 07:01:40 51°14.68 2°51.244 17.676286 4.26872 32.388736 16.275708
2004-06-11 07:01:43 51°14.679 2°51.241 17.676746 4.265978 32.364924 16.275708
2004-06-11 07:01:49 51°14.676 2°51.236 17.677959 4.268825 32.389052 16.343127
2004-06-11 07:01:54 51°14.675 2°51.232 17.677959 4.268825 32.389052 16.343127
2004-06-11 07:01:59 51°14.673 2°51.228 17.672772 4.254167 32.264293 16.275708
2004-06-11 07:02:03 51°14.672 2°51.225 17.676914 4.265872 32.361146 16.275708
2004-06-11 07:02:09 51°14.67 2°51.22 17.678545 4.268825 32.385587 16.343127
2004-06-11 07:02:14 51°14.668 2°51.216 17.676161 4.268192 32.379072 16.410546
2004-06-11 07:02:19 51°14.667 2°51.211 17.676537 4.269563 32.390688 16.444255
2004-06-11 07:02:25 51°14.665 2°51.206 17.676537 4.269563 32.390688 16.444255
2004-06-11 07:02:29 51°14.664 2°51.203 17.681641 4.265556 32.358465 16.545383
2004-06-11 07:02:34 51°14.662 2°51.198 17.676286 4.262287 32.330769 16.612802
2004-06-11 07:02:39 51°14.661 2°51.194 17.678712 4.268192 32.379072 16.680221
2004-06-11 07:02:43 51°14.66 2°51.19 17.684402 4.269247 32.38743 16.646512
2004-06-11 07:02:49 51°14.658 2°51.185 17.680553 4.269458 32.389794 16.74764
2004-06-11 07:02:54 51°14.657 2°51.18 17.680553 4.269458 32.389794 16.74764
2004-06-11 07:02:59 51°14.656 2°51.175 17.679967 4.266821 32.366879 16.781349
2004-06-11 07:03:03 51°14.655 2°51.172 17.680804 4.267981 32.377285 16.74764
2004-06-11 07:03:09 51°14.654 2°51.166 17.681683 4.268403 32.380859 16.71393
2004-06-11 07:03:14 51°14.653 2°51.161 17.678922 4.26988 32.392213 16.71393
2004-06-11 07:03:19 51°14.652 2°51.156 17.682519 4.274203 32.428274 16.71393
2004-06-11 07:03:23 51°14.652 2°51.153 17.682519 4.274203 32.428274 16.71393
2004-06-11 07:03:29 51°14.651 2°51.147 17.68528 4.269985 32.393107 16.781349
2004-06-11 07:03:34 51°14.65 2°51.142 17.687915 4.272305 32.412188 16.71393
2004-06-11 07:03:39 51°14.649 2°51.137 17.683189 4.268614 32.381491 16.71393
2004-06-11 07:03:43 51°14.649 2°51.132 17.684109 4.269669 32.389849 16.74764
2004-06-11 07:03:47 51°14.648 2°51.128 17.682436 4.26777 32.372612 16.71393
2004-06-11 07:03:54 51°14.647 2°51.121 17.682436 4.26777 32.372612 16.71393
2004-06-11 07:03:59 51°14.646 2°51.116 17.682645 4.271461 32.402729 16.71393
2004-06-11 07:04:03 51°14.646 2°51.112 17.683105 4.27125 32.39921 16.74764
2004-06-11 07:04:09 51°14.645 2°51.106 17.684109 4.268403 32.375664 16.74764
2004-06-11 07:04:14 51°14.644 2°51.101 17.68687 4.269774 32.387856 16.71393
2004-06-11 07:04:19 51°14.644 2°51.096 17.683356 4.271145 32.398893 16.74764
2004-06-11 07:04:23 51°14.643 2°51.092 17.683356 4.271145 32.398893 16.74764
2004-06-11 07:04:29 51°14.642 2°51.086 17.68344 4.268825 32.380392 16.71393
2004-06-11 07:04:34 51°14.642 2°51.081 17.686661 4.268509 32.376558 16.680221
2004-06-11 07:04:39 51°14.641 2°51.076 17.688794 4.272621 32.410825 16.646512
2004-06-11 07:04:43 51°14.64 2°51.072 17.690383 4.269458 32.384598 16.646512
2004-06-11 07:04:49 51°14.639 2°51.066 17.690425 4.272199 32.407251 16.646512
2004-06-11 07:04:54 51°14.638 2°51.06 17.690425 4.272199 32.407251 16.646512
2004-06-11 07:04:59 51°14.638 2°51.055 17.689128 4.262392 32.324748 16.612802
2004-06-11 07:05:03 51°14.637 2°51.051 17.695988 4.271356 32.400103 16.680221
2004-06-11 07:05:09 51°14.636 2°51.045 17.69076 4.266188 32.355174 16.612802
2004-06-11 07:05:13 51°14.635 2°51.041 17.6903 4.272199 32.405518 16.612802
2004-06-11 07:05:18 51°14.634 2°51.036 17.690216 4.269563 32.382029 16.612802
2004-06-11 07:05:25 51°14.633 2°51.03 17.690216 4.269563 32.382029 16.612802
2004-06-11 07:05:29 51°14.632 2°51.026 17.691638 4.263341 32.328753 16.579093
2004-06-11 07:05:34 51°14.631 2°51.021 17.69009 4.269985 32.382717 16.612802
2004-06-11 07:05:39 51°14.63 2°51.016 17.687455 4.269985 32.383294 16.579093
2004-06-11 07:05:43 51°14.63 2°51.012 17.691805 4.270618 32.388653 16.579093
2004-06-11 07:05:48 51°14.628 2°51.009 17.691052 4.269879 32.383555 16.511674
2004-06-11 07:05:54 51°14.627 2°51.004 17.691052 4.269879 32.383555 16.511674
2004-06-11 07:05:59 51°14.626 2°51 17.693897 4.271883 32.399373 16.444255
2004-06-11 07:06:03 51°14.626 2°50.996 17.692475 4.263763 32.331173 16.511674
2004-06-11 07:06:09 51°14.625 2°50.991 17.699041 4.27357 32.414245 16.444255
2004-06-11 07:06:14 51°14.624 2°50.986 17.700045 4.270934 32.391911 16.477965
2004-06-11 07:06:18 51°14.623 2°50.982 17.695611 4.274203 32.419028 16.410546
2004-06-11 07:06:25 51°14.622 2°50.976 17.695611 4.274203 32.419028 16.410546
2004-06-11 07:06:30 51°14.621 2°50.971 17.694399 4.274098 32.416979 16.511674
2004-06-11 07:06:34 51°14.62 2°50.967 17.698623 4.273148 32.408361 16.579093
2004-06-11 07:06:38 51°14.619 2°50.964 17.697201 4.270301 32.381934 16.511674
2004-06-11 07:06:43 51°14.619 2°50.959 17.700086 4.273676 32.410518 16.545383
2004-06-11 07:06:49 51°14.618 2°50.954 17.693771 4.272621 32.401585 16.579093
2004-06-11 07:06:54 51°14.617 2°50.948 17.693771 4.272621 32.401585 16.579093
2004-06-11 07:06:59 51°14.616 2°50.943 17.700045 4.274836 32.420922 16.646512
2004-06-11 07:07:03 51°14.615 2°50.939 17.695444 4.278316 32.449248 16.680221
2004-06-11 07:07:09 51°14.614 2°50.934 17.691931 4.277894 32.445674 16.71393
2004-06-11 07:07:13 51°14.614 2°50.93 17.69398 4.278316 32.449248 16.848768
2004-06-11 07:07:19 51°14.613 2°50.925 17.696197 4.278527 32.451613 16.815059
2004-06-11 07:07:23 51°14.612 2°50.921 17.696197 4.278527 32.451613 16.815059
2004-06-11 07:07:29 51°14.611 2°50.916 17.695402 4.278527 32.449879 16.815059
2004-06-11 07:07:34 51°14.61 2°50.911 17.697703 4.278421 32.450142 16.882477
2004-06-11 07:07:39 51°14.61 2°50.907 17.69971 4.278632 32.452507 17.017315
2004-06-11 07:07:43 51°14.609 2°50.903 17.700923 4.278949 32.455765 17.051024
2004-06-11 07:07:49 51°14.608 2°50.897 17.699877 4.278949 32.456344 17.152153
2004-06-11 07:07:54 51°14.607 2°50.893 17.699877 4.278949 32.456344 17.152153
2004-06-11 07:07:59 51°14.607 2°50.888 17.696824 4.279054 32.456659 17.152153
2004-06-11 07:08:03 51°14.606 2°50.885 17.699417 4.27916 32.456974 17.118443
2004-06-11 07:08:09 51°14.605 2°50.879 17.697243 4.27937 32.457604 17.185862
2004-06-11 07:08:14 51°14.604 2°50.875 17.702428 4.27937 32.457026 17.185862
2004-06-11 07:08:19 51°14.604 2°50.871 17.700421 4.279476 32.457341 17.118443
2004-06-11 07:08:23 51°14.603 2°50.867 17.700421 4.279476 32.457341 17.118443
2004-06-11 07:08:29 51°14.602 2°50.862 17.697033 4.279476 32.45792 17.219571
2004-06-11 07:08:33 51°14.601 2°50.858 17.694649 4.279687 32.460285 17.28699
2004-06-11 07:08:39 51°14.6 2°50.853 17.698665 4.279792 32.4606 17.28699
2004-06-11 07:08:43 51°14.599 2°50.85 17.702637 4.279898 32.460915 17.253281
2004-06-11 07:08:50 51°14.598 2°50.844 17.70385 4.279898 32.460915 17.28699
2004-06-11 07:08:54 51°14.597 2°50.841 17.70385 4.279898 32.460915 17.28699
2004-06-11 07:08:59 51°14.596 2°50.837 17.699794 4.280425 32.466539 17.28699
2004-06-11 07:09:03 51°14.595 2°50.833 17.698372 4.28053 32.467433 17.253281
2004-06-11 07:09:09 51°14.594 2°50.828 17.697493 4.280636 32.467748 17.28699
2004-06-11 07:09:14 51°14.593 2°50.824 17.70293 4.280741 32.467484 17.253281
2004-06-11 07:09:18 51°14.592 2°50.821 17.702554 4.280952 32.468114 17.118443
2004-06-11 07:09:24 51°14.59 2°50.816 17.702554 4.280952 32.468114 17.118443
2004-06-11 07:09:30 51°14.589 2°50.811 17.703265 4.281163 32.471058 17.017315
2004-06-11 07:09:34 51°14.588 2°50.808 17.70385 4.281374 32.474002 17.152153
2004-06-11 07:09:40 51°14.586 2°50.803 17.703976 4.281585 32.475789 17.084734
2004-06-11 07:09:44 51°14.585 2°50.799 17.704143 4.281374 32.473424 16.983606
2004-06-11 07:09:50 51°14.584 2°50.794 17.70615 4.281901 32.476734 16.916187
2004-06-11 07:09:54 51°14.583 2°50.791 17.70615 4.281901 32.476734 16.916187
2004-06-11 07:09:59 51°14.582 2°50.787 17.702512 4.281901 32.476155 16.848768
2004-06-11 07:10:05 51°14.58 2°50.782 17.705607 4.282323 32.479151 16.781349
2004-06-11 07:10:09 51°14.58 2°50.779 17.706234 4.282218 32.4771 16.74764
2004-06-11 07:10:15 51°14.578 2°50.774 17.705941 4.282639 32.479517 16.646512
2004-06-11 07:10:19 51°14.577 2°50.77 17.706694 4.282745 32.48041 16.646512
2004-06-11 07:10:23 51°14.577 2°50.767 17.706694 4.282745 32.48041 16.646512
2004-06-11 07:10:30 51°14.575 2°50.761 17.70523 4.28285 32.481882 16.680221
2004-06-11 07:10:34 51°14.575 2°50.757 17.702805 4.282956 32.482776 16.74764
2004-06-11 07:10:39 51°14.574 2°50.753 17.706318 4.283272 32.484299 16.781349
2004-06-11 07:10:43 51°14.573 2°50.75 17.703767 4.283167 32.483405 16.781349
2004-06-11 07:10:49 51°14.572 2°50.744 17.701383 4.283272 32.484299 16.848768
2004-06-11 07:10:54 51°14.571 2°50.74 17.701383 4.283272 32.484299 16.848768
2004-06-11 07:10:59 51°14.571 2°50.735 17.705941 4.283378 32.484613 16.882477
2004-06-11 07:11:03 51°14.57 2°50.731 17.703683 4.283483 32.486085 16.916187
2004-06-11 07:11:09 51°14.569 2°50.726 17.704352 4.283378 32.485771 16.815059
2004-06-11 07:11:14 51°14.568 2°50.721 17.703139 4.2838 32.489344 16.781349
2004-06-11 07:11:19 51°14.568 2°50.717 17.705858 4.283905 32.490817 16.882477
2004-06-11 07:11:23 51°14.567 2°50.713 17.705858 4.283905 32.490817 16.882477
2004-06-11 07:11:30 51°14.566 2°50.707 17.70063 4.2838 32.489344 16.815059
2004-06-11 07:11:34 51°14.566 2°50.703 17.702345 4.2838 32.489923 16.848768
2004-06-11 07:11:39 51°14.565 2°50.698 17.700839 4.283694 32.48903 16.815059
2004-06-11 07:11:42 51°14.565 2°50.696 17.699041 4.283905 32.490817 16.916187
2004-06-11 07:11:47 51°14.564 2°50.691 17.700337 4.284116 32.492604 16.983606
2004-06-11 07:11:54 51°14.563 2°50.685 17.700337 4.284116 32.492604 16.983606
2004-06-11 07:11:59 51°14.562 2°50.68 17.700045 4.284221 32.495813 17.084734
2004-06-11 07:12:03 51°14.562 2°50.676 17.697033 4.284221 32.495234 16.949896
2004-06-11 07:12:09 51°14.561 2°50.671 17.699877 4.284432 32.497021 16.983606
2004-06-11 07:12:14 51°14.561 2°50.666 17.703098 4.284327 32.496706 16.983606
2004-06-11 07:12:19 51°14.56 2°50.662 17.699501 4.284538 32.499651 17.051024
2004-06-11 07:12:23 51°14.56 2°50.658 17.699501 4.284538 32.499651 17.051024
2004-06-11 07:12:28 51°14.559 2°50.653 17.695026 4.284643 32.499966 16.983606
2004-06-11 07:12:34 51°14.558 2°50.648 17.698079 4.284432 32.499337 17.051024
2004-06-11 07:12:39 51°14.558 2°50.644 17.700714 4.284538 32.50023 17.084734
2004-06-11 07:12:44 51°14.557 2°50.639 17.703432 4.284854 32.501753 17.051024
2004-06-11 07:12:49 51°14.556 2°50.635 17.699626 4.284854 32.501753 17.084734
2004-06-11 07:12:54 51°14.555 2°50.631 17.699626 4.284854 32.501753 17.084734
2004-06-11 07:12:59 51°14.555 2°50.626 17.702428 4.285065 32.504699 16.983606
2004-06-11 07:13:03 51°14.554 2°50.623 17.700714 4.285171 32.505013 16.882477
2004-06-11 07:13:09 51°14.553 2°50.618 17.700923 4.285171 32.505013 16.848768
2004-06-11 07:13:13 51°14.552 2°50.614 17.699125 4.285381 32.506221 16.815059
2004-06-11 07:13:19 51°14.551 2°50.609 17.699668 4.285065 32.504119 16.949896
2004-06-11 07:13:23 51°14.55 2°50.606 17.699668 4.285065 32.504119 16.949896
2004-06-11 07:13:30 51°14.549 2°50.599 17.703892 4.285276 32.505328 16.74764
2004-06-11 07:13:34 51°14.548 2°50.596 17.702177 4.285381 32.505642 16.781349
2004-06-11 07:13:39 51°14.548 2°50.592 17.699041 4.285803 32.508637 17.219571
2004-06-11 07:13:45 51°14.547 2°50.586 17.710374 4.285803 32.509216 16.949896
2004-06-11 07:13:49 51°14.546 2°50.583 17.701383 4.285698 32.508323 16.815059
2004-06-11 07:13:54 51°14.545 2°50.579 17.701383 4.285698 32.508323 16.815059
2004-06-11 07:13:59 51°14.544 2°50.574 17.706108 4.285698 32.507165 16.882477
2004-06-11 07:14:03 51°14.543 2°50.571 17.702805 4.285909 32.509531 16.848768
2004-06-11 07:14:09 51°14.542 2°50.566 17.695988 4.286436 32.51342 16.848768
2004-06-11 07:14:14 51°14.541 2°50.561 17.699417 4.285909 32.507793 16.781349
2004-06-11 07:14:19 51°14.54 2°50.557 17.70063 4.286647 32.514628 16.74764
2004-06-11 07:14:23 51°14.54 2°50.553 17.70063 4.286647 32.514628 16.74764
2004-06-11 07:14:29 51°14.539 2°50.548 17.698748 4.286647 32.514048 16.71393
2004-06-11 07:14:34 51°14.538 2°50.544 17.703683 4.287174 32.519675 16.680221
2004-06-11 07:14:39 51°14.537 2°50.54 17.704059 4.287702 32.525881 16.545383
2004-06-11 07:14:43 51°14.536 2°50.536 17.705481 4.287491 32.524094 16.579093
2004-06-11 07:14:49 51°14.535 2°50.531 17.701508 4.287596 32.524408 16.545383
2004-06-11 07:14:54 51°14.534 2°50.527 17.701508 4.287596 32.524408 16.545383
2004-06-11 07:14:59 51°14.533 2°50.523 17.700546 4.288018 32.528563 16.477965
2004-06-11 07:15:03 51°14.532 2°50.519 17.705105 4.288018 32.526824 16.477965
2004-06-11 07:15:09 51°14.531 2°50.514 17.698163 4.288334 32.528346 16.376836
2004-06-11 07:15:13 51°14.53 2°50.511 17.698539 4.288545 32.530713 16.275708
2004-06-11 07:15:19 51°14.529 2°50.506 17.695821 4.289072 32.534602 16.241999
2004-06-11 07:15:23 51°14.528 2°50.502 17.695821 4.289072 32.534602 16.241999
2004-06-11 07:15:29 51°14.526 2°50.497 17.697995 4.289389 32.537283 16.309418
2004-06-11 07:15:34 51°14.525 2°50.493 17.695026 4.2896 32.540809 16.241999
2004-06-11 07:15:38 51°14.524 2°50.49 17.695862 4.289916 32.54349 16.140871
2004-06-11 07:15:43 51°14.523 2°50.485 17.701759 4.290022 32.546123 16.17458
2004-06-11 07:15:49 51°14.522 2°50.48 17.699292 4.290233 32.548491 16.309418
2004-06-11 07:15:54 51°14.521 2°50.475 17.699292 4.290233 32.548491 16.309418
2004-06-11 07:15:59 51°14.52 2°50.471 17.696071 4.290338 32.549385 16.275708
2004-06-11 07:16:03 51°14.519 2°50.467 17.698246 4.290127 32.547597 16.309418
2004-06-11 07:16:10 51°14.517 2°50.461 17.696657 4.290654 32.552646 16.343127
2004-06-11 07:16:13 51°14.517 2°50.459 17.698748 4.290444 32.550279 16.444255
2004-06-11 07:16:18 51°14.516 2°50.454 17.696824 4.29076 32.55412 16.444255
2004-06-11 07:16:23 51°14.514 2°50.45 17.696824 4.29076 32.55412 16.444255
2004-06-11 07:16:29 51°14.513 2°50.445 17.695821 4.29076 32.55412 16.477965
2004-06-11 07:16:34 51°14.511 2°50.441 17.696573 4.290971 32.554748 16.444255
2004-06-11 07:16:39 51°14.51 2°50.436 17.693227 4.291604 32.561271 16.477965
2004-06-11 07:16:43 51°14.509 2°50.432 17.695611 4.291393 32.559483 16.477965
2004-06-11 07:16:49 51°14.507 2°50.427 17.695695 4.291814 32.561899 16.511674
2004-06-11 07:16:54 51°14.506 2°50.422 17.695695 4.291814 32.561899 16.511674
2004-06-11 07:16:59 51°14.505 2°50.418 17.696866 4.291709 32.561585 16.511674
2004-06-11 07:17:03 51°14.503 2°50.414 17.695026 4.292025 32.566007 16.545383
2004-06-11 07:17:09 51°14.502 2°50.409 17.691429 4.292658 32.571371 16.511674
2004-06-11 07:17:13 51°14.5 2°50.406 17.698832 4.292869 32.571998 16.444255
2004-06-11 07:17:19 51°14.499 2°50.4 17.700379 4.29308 32.574367 16.410546
2004-06-11 07:17:23 51°14.497 2°50.397 17.700379 4.29308 32.574367 16.410546
2004-06-11 07:17:30 51°14.495 2°50.391 17.699208 4.29308 32.574367 16.376836
2004-06-11 07:17:34 51°14.494 2°50.387 17.696741 4.293713 32.57973 16.376836
2004-06-11 07:17:39 51°14.493 2°50.383 17.699334 4.293607 32.580578 16.309418
2004-06-11 07:17:43 51°14.491 2°50.379 17.697117 4.293924 32.58268 16.275708
2004-06-11 07:17:49 51°14.49 2°50.374 17.695779 4.294135 32.582726 16.241999
2004-06-11 07:17:54 51°14.488 2°50.37 17.695779 4.294135 32.582726 16.241999
2004-06-11 07:17:59 51°14.487 2°50.366 17.695988 4.294662 32.586615 16.17458
2004-06-11 07:18:05 51°14.485 2°50.361 17.699334 4.294451 32.584827 16.17458
2004-06-11 07:18:09 51°14.484 2°50.357 17.694566 4.294873 32.588984 16.107161
2004-06-11 07:18:14 51°14.482 2°50.353 17.696824 4.295295 32.59256 15.871195
2004-06-11 07:18:19 51°14.481 2°50.349 17.698874 4.295611 32.595823 15.938614
2004-06-11 07:18:23 51°14.48 2°50.346 17.698874 4.295611 32.595823 15.938614
2004-06-11 07:18:29 51°14.478 2°50.341 17.69649 4.295717 32.596717 16.073452
2004-06-11 07:18:34 51°14.477 2°50.337 17.697995 4.296033 32.598237 15.904905
2004-06-11 07:18:38 51°14.475 2°50.334 17.700421 4.296349 32.602662 15.871195
2004-06-11 07:18:43 51°14.474 2°50.33 17.698957 4.296349 32.6015 15.837486
2004-06-11 07:18:49 51°14.472 2°50.325 17.697243 4.296877 32.605971 15.770067
2004-06-11 07:18:54 51°14.471 2°50.321 17.697243 4.296877 32.605971 15.770067
2004-06-11 07:18:59 51°14.47 2°50.317 17.69741 4.297087 32.607759 15.668939
2004-06-11 07:19:05 51°14.468 2°50.312 17.695904 4.297298 32.608966 15.668939
2004-06-11 07:19:09 51°14.467 2°50.309 17.692014 4.297615 32.611067 15.63523
2004-06-11 07:19:14 51°14.466 2°50.304 17.693604 4.297826 32.612274 15.60152
2004-06-11 07:19:19 51°14.464 2°50.3 17.691178 4.298248 32.616432 15.63523
2004-06-11 07:19:23 51°14.463 2°50.297 17.691178 4.298248 32.616432 15.63523
2004-06-11 07:19:28 51°14.462 2°50.292 17.690592 4.298564 32.620277 15.567811
2004-06-11 07:19:34 51°14.46 2°50.287 17.688417 4.298564 32.620858 15.567811
2004-06-11 07:19:39 51°14.458 2°50.283 17.692935 4.298986 32.625597 15.668939
2004-06-11 07:19:45 51°14.457 2°50.278 17.689379 4.299091 32.627654 15.63523
2004-06-11 07:19:50 51°14.455 2°50.274 17.691345 4.299197 32.62913 15.60152
2004-06-11 07:19:54 51°14.454 2°50.271 17.691345 4.299197 32.62913 15.60152
2004-06-11 07:19:59 51°14.452 2°50.267 17.688334 4.299408 32.632082 15.668939
2004-06-11 07:20:03 51°14.451 2°50.263 17.688334 4.299724 32.634765 15.702648
2004-06-11 07:20:09 51°14.449 2°50.258 17.689254 4.299724 32.635346 15.668939
2004-06-11 07:20:14 51°14.448 2°50.254 17.683189 4.30004 32.638029 15.702648
2004-06-11 07:20:19 51°14.446 2°50.25 17.685657 4.29983 32.637404 15.803777
2004-06-11 07:20:23 51°14.445 2°50.246 17.685657 4.29983 32.637404 15.803777
2004-06-11 07:20:30 51°14.443 2°50.24 17.684444 4.300146 32.639505 15.837486
2004-06-11 07:20:34 51°14.442 2°50.236 17.679298 4.300251 32.6404 15.904905
2004-06-11 07:20:39 51°14.44 2°50.232 17.684402 4.300462 32.642188 16.073452
2004-06-11 07:20:46 51°14.438 2°50.226 17.679967 4.300568 32.64541 16.17458
2004-06-11 07:20:50 51°14.437 2°50.222 17.680051 4.300251 32.643309 16.241999
2004-06-11 07:20:54 51°14.436 2°50.219 17.680051 4.300251 32.643309 16.241999
2004-06-11 07:20:59 51°14.434 2°50.215 17.679005 4.300779 32.648363 16.343127
2004-06-11 07:21:03 51°14.433 2°50.211 17.682603 4.298775 32.633695 16.343127
2004-06-11 07:21:09 51°14.431 2°50.207 17.678169 4.301095 32.653375 16.444255
2004-06-11 07:21:14 51°14.43 2°50.202 17.676663 4.300884 32.652168 16.444255
2004-06-11 07:21:19 51°14.428 2°50.198 17.679298 4.301517 32.658117 16.444255
2004-06-11 07:21:23 51°14.427 2°50.195 17.679298 4.301517 32.658117 16.444255
2004-06-11 07:21:29 51°14.425 2°50.19 17.675407 4.301201 32.656598 16.545383
2004-06-11 07:21:34 51°14.424 2°50.185 17.674738 4.301306 32.65691 16.579093
2004-06-11 07:21:38 51°14.423 2°50.182 17.675407 4.301833 32.662548 16.646512
2004-06-11 07:21:43 51°14.421 2°50.178 17.67386 4.301728 32.661071 16.612802
2004-06-11 07:21:50 51°14.419 2°50.172 17.67386 4.30215 32.665814 16.71393
2004-06-11 07:21:54 51°14.418 2°50.168 17.67386 4.30215 32.665814 16.71393
2004-06-11 07:21:59 51°14.416 2°50.164 17.671684 4.302361 32.668769 16.579093
2004-06-11 07:22:03 51°14.415 2°50.161 17.673776 4.302783 32.672348 16.612802
2004-06-11 07:22:09 51°14.413 2°50.156 17.672061 4.303099 32.675032 16.511674
2004-06-11 07:22:14 51°14.412 2°50.152 17.672772 4.303204 32.677675 16.511674
2004-06-11 07:22:19 51°14.41 2°50.148 17.670764 4.303521 32.680942 16.444255
2004-06-11 07:22:23 51°14.408 2°50.144 17.670764 4.303521 32.680942 16.444255
2004-06-11 07:22:29 51°14.406 2°50.139 17.671015 4.304048 32.684833 16.309418
2004-06-11 07:22:34 51°14.405 2°50.135 17.672855 4.304259 32.686623 16.343127
2004-06-11 07:22:39 51°14.403 2°50.131 17.667249 4.304575 32.68989 16.275708
2004-06-11 07:22:43 51°14.402 2°50.128 17.668379 4.304892 32.693158 16.275708
2004-06-11 07:22:50 51°14.399 2°50.122 17.668964 4.305103 32.696114 16.241999
2004-06-11 07:22:54 51°14.398 2°50.119 17.668964 4.305103 32.696114 16.241999
2004-06-11 07:22:59 51°14.396 2°50.115 17.666789 4.305525 32.699694 16.208289
2004-06-11 07:23:03 51°14.395 2°50.111 17.66499 4.305525 32.700277 16.17458
2004-06-11 07:23:10 51°14.393 2°50.105 17.666663 4.306474 32.708332 16.17458
2004-06-11 07:23:14 51°14.391 2°50.102 17.664027 4.306474 32.708915 16.140871
2004-06-11 07:23:18 51°14.39 2°50.098 17.660219 4.306474 32.709499 16.107161
2004-06-11 07:23:26 51°14.388 2°50.091 17.660219 4.306474 32.709499 16.107161
2004-06-11 07:23:30 51°14.387 2°50.088 17.664194 4.307001 32.714557 16.107161
2004-06-11 07:23:34 51°14.386 2°50.084 17.665366 4.307318 32.71841 16.107161
2004-06-11 07:23:39 51°14.384 2°50.08 17.66319 4.307634 32.720511 16.039742
2004-06-11 07:23:43 51°14.383 2°50.076 17.66319 4.30795 32.72378 16.039742
2004-06-11 07:23:50 51°14.382 2°50.07 17.661642 4.30795 32.726115 16.006033
2004-06-11 07:23:54 51°14.381 2°50.066 17.661642 4.30795 32.726115 16.006033
2004-06-11 07:23:59 51°14.379 2°50.061 17.660721 4.308161 32.727322 15.938614
2004-06-11 07:24:03 51°14.378 2°50.058 17.657374 4.308689 32.731798 15.938614
2004-06-11 07:24:09 51°14.377 2°50.052 17.662856 4.309005 32.734483 15.904905
2004-06-11 07:24:14 51°14.375 2°50.048 17.659633 4.308794 32.733277 15.904905
2004-06-11 07:24:19 51°14.374 2°50.043 17.663065 4.309532 32.740712 15.904905
2004-06-11 07:24:26 51°14.372 2°50.037 17.663065 4.309532 32.740712 15.904905
2004-06-11 07:24:30 51°14.371 2°50.033 17.662312 4.31006 32.744604 15.871195
2004-06-11 07:24:34 51°14.37 2°50.03 17.656537 4.309954 32.745461 15.837486
2004-06-11 07:24:39 51°14.368 2°50.025 17.657541 4.310271 32.748731 15.904905
2004-06-11 07:24:43 51°14.367 2°50.022 17.657457 4.310481 32.749938 15.803777
2004-06-11 07:24:50 51°14.365 2°50.016 17.655867 4.310587 32.751417 15.972324
2004-06-11 07:24:54 51°14.363 2°50.013 17.655867 4.310587 32.751417 15.972324
2004-06-11 07:24:59 51°14.362 2°50.009 17.654612 4.310587 32.751417 15.837486
2004-06-11 07:25:03 51°14.361 2°50.005 17.658797 4.311009 32.755583 15.871195
2004-06-11 07:25:10 51°14.358 2°50 17.65729 4.311009 32.757337 15.871195
2004-06-11 07:25:14 51°14.357 2°49.996 17.654695 4.311325 32.760023 15.770067
2004-06-11 07:25:18 51°14.356 2°49.993 17.654444 4.311536 32.762398 15.904905
2004-06-11 07:25:23 51°14.354 2°49.989 17.654444 4.311536 32.762398 15.904905
2004-06-11 07:25:27 51°14.353 2°49.985 17.656118 4.311747 32.76302 15.837486
2004-06-11 07:25:34 51°14.351 2°49.98 17.651389 4.311642 32.762125 15.871195
2004-06-11 07:25:39 51°14.349 2°49.975 17.654151 4.312063 32.765707 15.736358
2004-06-11 07:25:44 51°14.348 2°49.971 17.653775 4.312274 32.768082 15.938614
2004-06-11 07:25:49 51°14.347 2°49.967 17.648669 4.312485 32.771627 16.006033
2004-06-11 07:25:54 51°14.345 2°49.963 17.648669 4.312485 32.771627 16.006033
2004-06-11 07:25:59 51°14.344 2°49.959 17.646242 4.31238 32.770732 16.006033
2004-06-11 07:26:03 51°14.342 2°49.955 17.642726 4.312802 32.774899 16.006033
2004-06-11 07:26:10 51°14.34 2°49.949 17.644107 4.312907 32.776964 16.039742
2004-06-11 07:26:14 51°14.339 2°49.946 17.643144 4.313856 32.785025 16.039742
2004-06-11 07:26:19 51°14.338 2°49.942 17.647581 4.313645 32.784989 16.17458
2004-06-11 07:26:23 51°14.336 2°49.938 17.647581 4.313645 32.784989 16.17458
2004-06-11 07:26:29 51°14.334 2°49.934 17.639168 4.313751 32.787054 16.039742
2004-06-11 07:26:34 51°14.333 2°49.929 17.643688 4.313751 32.789395 16.039742
2004-06-11 07:26:39 51°14.331 2°49.925 17.639586 4.314278 32.794459 16.107161
2004-06-11 07:26:43 51°14.33 2°49.922 17.636866 4.314173 32.794149 16.107161
2004-06-11 07:26:50 51°14.328 2°49.916 17.636991 4.314489 32.796251 16.140871
2004-06-11 07:26:54 51°14.327 2°49.913 17.636991 4.314489 32.796251 16.140871
2004-06-11 07:26:59 51°14.325 2°49.909 17.634396 4.314806 32.800109 16.17458
2004-06-11 07:27:03 51°14.324 2°49.906 17.635526 4.314806 32.800695 16.140871
2004-06-11 07:27:10 51°14.322 2°49.901 17.633642 4.3147 32.80097 16.17458
2004-06-11 07:27:14 51°14.321 2°49.898 17.63021 4.3147 32.802141 16.17458
2004-06-11 07:27:19 51°14.319 2°49.894 17.629163 4.315017 32.806586 16.17458
2004-06-11 07:27:23 51°14.318 2°49.891 17.629163 4.315017 32.806586 16.17458
2004-06-11 07:27:30 51°14.316 2°49.885 17.631466 4.314911 32.807446 16.275708
2004-06-11 07:27:34 51°14.314 2°49.882 17.632889 4.315017 32.808343 16.309418
2004-06-11 07:27:39 51°14.313 2°49.878 17.635903 4.315439 32.811927 16.343127
2004-06-11 07:27:43 51°14.311 2°49.875 17.63268 4.315544 32.81458 16.444255
2004-06-11 07:27:49 51°14.309 2°49.871 17.632135 4.315544 32.816338 16.376836
2004-06-11 07:27:54 51°14.308 2°49.867 17.632135 4.315544 32.816338 16.376836
2004-06-11 07:27:59 51°14.306 2°49.863 17.633852 4.315333 32.814546 16.376836
2004-06-11 07:28:03 51°14.305 2°49.86 17.63067 4.315755 32.816373 16.444255
2004-06-11 07:28:09 51°14.303 2°49.855 17.631759 4.315649 32.814891 16.410546
2004-06-11 07:28:14 51°14.301 2°49.851 17.628703 4.31586 32.817269 16.477965
2004-06-11 07:28:18 51°14.3 2°49.848 17.631089 4.31586 32.816683 16.545383
2004-06-11 07:28:26 51°14.298 2°49.842 17.631089 4.31586 32.816683 16.545383
2004-06-11 07:28:29 51°14.297 2°49.84 17.627656 4.315966 32.817579 16.444255
2004-06-11 07:28:33 51°14.295 2°49.836 17.624893 4.316177 32.821129 16.410546
2004-06-11 07:28:39 51°14.294 2°49.832 17.627447 4.316493 32.823818 16.545383
2004-06-11 07:28:43 51°14.292 2°49.829 17.622255 4.316282 32.823198 16.545383
2004-06-11 07:28:49 51°14.291 2°49.824 17.622632 4.316493 32.82499 16.646512
2004-06-11 07:28:54 51°14.289 2°49.82 17.622632 4.316493 32.82499 16.646512
2004-06-11 07:28:59 51°14.288 2°49.815 17.622423 4.316493 32.825576 16.781349
2004-06-11 07:29:04 51°14.286 2°49.811 17.61878 4.316704 32.828541 16.848768
2004-06-11 07:29:08 51°14.285 2°49.808 17.620497 4.316071 32.824336 17.017315
2004-06-11 07:29:14 51°14.283 2°49.803 17.616351 4.31681 32.83061 17.084734
2004-06-11 07:29:19 51°14.281 2°49.799 17.618361 4.316704 32.8303 17.152153
2004-06-11 07:29:23 51°14.28 2°49.796 17.618361 4.316704 32.8303 17.152153
2004-06-11 07:29:29 51°14.278 2°49.791 17.620622 4.317126 32.836231 17.28699
2004-06-11 07:29:34 51°14.277 2°49.787 17.612332 4.317442 32.840093 17.28699
2004-06-11 07:29:39 51°14.275 2°49.783 17.614677 4.317443 32.841853 17.219571
2004-06-11 07:29:43 51°14.274 2°49.779 17.615012 4.31797 32.846335 17.185862
2004-06-11 07:29:49 51°14.271 2°49.775 17.61409 4.318392 32.850508 17.084734
2004-06-11 07:29:54 51°14.27 2°49.771 17.61409 4.318392 32.850508 17.084734
2004-06-11 07:29:59 51°14.268 2°49.767 17.617189 4.318919 32.854991 17.017315
2004-06-11 07:30:03 51°14.267 2°49.764 17.610992 4.319341 32.860338 16.848768
2004-06-11 07:30:09 51°14.265 2°49.76 17.614132 4.319657 32.863615 16.781349
2004-06-11 07:30:14 51°14.263 2°49.756 17.616184 4.320079 32.868376 16.646512
2004-06-11 07:30:19 51°14.261 2°49.753 17.61095 4.319868 32.865996 16.612802
2004-06-11 07:30:23 51°14.26 2°49.75 17.61095 4.319868 32.865996 16.612802
2004-06-11 07:30:29 51°14.258 2°49.746 17.607809 4.320501 32.872551 16.477965
2004-06-11 07:30:33 51°14.256 2°49.743 17.608856 4.320185 32.86986 16.477965
2004-06-11 07:30:38 51°14.255 2°49.74 17.608353 4.320817 32.874654 16.444255
2004-06-11 07:30:43 51°14.253 2°49.736 17.60404 4.321345 32.879725 16.309418
2004-06-11 07:30:50 51°14.251 2°49.731 17.602155 4.321345 32.8809 16.309418
2004-06-11 07:30:54 51°14.249 2°49.728 17.602155 4.321345 32.8809 16.309418
2004-06-11 07:30:59 51°14.248 2°49.725 17.603537 4.321556 32.883281 16.208289
2004-06-11 07:31:03 51°14.247 2°49.722 17.602532 4.321872 32.886559 16.17458
2004-06-11 07:31:10 51°14.244 2°49.717 17.603161 4.321872 32.887734 16.17458
2004-06-11 07:31:14 51°14.243 2°49.714 17.601904 4.321767 32.888012 16.208289
2004-06-11 07:31:18 51°14.242 2°49.71 17.600815 4.322399 32.893982 16.039742
2004-06-11 07:31:24 51°14.24 2°49.706 17.600815 4.322399 32.893982 16.039742
2004-06-11 07:31:29 51°14.239 2°49.702 17.594826 4.322399 32.895157 16.006033
2004-06-11 07:31:34 51°14.238 2°49.698 17.596501 4.32261 32.896951 16.006033
2004-06-11 07:31:39 51°14.236 2°49.694 17.596711 4.32261 32.896951 15.938614
2004-06-11 07:31:46 51°14.235 2°49.688 17.594533 4.323243 32.903509 15.972324
2004-06-11 07:31:49 51°14.234 2°49.686 17.600019 4.323349 32.905583 15.938614
2004-06-11 07:31:53 51°14.233 2°49.683 17.600019 4.323349 32.905583 15.938614
2004-06-11 07:31:59 51°14.231 2°49.678 17.59202 4.32356 32.908553 15.770067
2004-06-11 07:32:03 51°14.23 2°49.674 17.592522 4.323771 32.910935 15.736358
2004-06-11 07:32:09 51°14.229 2°49.669 17.593444 4.323665 32.912391 15.736358
2004-06-11 07:32:14 51°14.228 2°49.665 17.59403 4.324192 32.916289 15.63523
2004-06-11 07:32:19 51°14.227 2°49.661 17.589841 4.324087 32.914803 15.668939
2004-06-11 07:32:22 51°14.226 2°49.658 17.589841 4.324087 32.914803 15.668939
2004-06-11 07:32:29 51°14.225 2°49.652 17.593569 4.324298 32.918363 15.567811
2004-06-11 07:32:34 51°14.223 2°49.648 17.588124 4.324298 32.920128 15.60152
2004-06-11 07:32:38 51°14.223 2°49.645 17.588627 4.324931 32.926101 15.60152
2004-06-11 07:32:43 51°14.222 2°49.64 17.587663 4.325036 32.926998 15.534101
2004-06-11 07:32:49 51°14.221 2°49.635 17.58737 4.324931 32.926689 15.567811
2004-06-11 07:32:55 51°14.22 2°49.63 17.58737 4.324931 32.926689 15.567811
2004-06-11 07:32:59 51°14.219 2°49.626 17.589674 4.325564 32.932662 15.567811
2004-06-11 07:33:05 51°14.218 2°49.621 17.586784 4.32588 32.936532 15.567811
2004-06-11 07:33:09 51°14.217 2°49.617 17.583684 4.326091 32.938916 15.534101
2004-06-11 07:33:15 51°14.216 2°49.612 17.584982 4.325985 32.939785 15.534101
2004-06-11 07:33:19 51°14.215 2°49.608 17.586867 4.326091 32.941271 15.567811
2004-06-11 07:33:23 51°14.214 2°49.604 17.586867 4.326091 32.941271 15.567811
2004-06-11 07:33:29 51°14.213 2°49.599 17.585234 4.326302 32.942478 15.500392
2004-06-11 07:33:34 51°14.212 2°49.595 17.585024 4.326724 32.946068 15.534101
2004-06-11 07:33:39 51°14.211 2°49.59 17.580793 4.326724 32.946657 15.534101
2004-06-11 07:33:44 51°14.21 2°49.586 17.580961 4.32704 32.949939 15.534101
2004-06-11 07:33:47 51°14.21 2°49.583 17.580416 4.326724 32.948424 15.500392
2004-06-11 07:33:54 51°14.208 2°49.576 17.580416 4.326724 32.948424 15.500392
2004-06-11 07:33:59 51°14.208 2°49.571 17.576855 4.32704 32.950528 15.567811
2004-06-11 07:34:04 51°14.207 2°49.567 17.575472 4.327146 32.951425 15.567811
2004-06-11 07:34:09 51°14.206 2°49.562 17.575682 4.32704 32.952295 15.63523
2004-06-11 07:34:14 51°14.205 2°49.557 17.577735 4.326935 32.952576 15.702648
2004-06-11 07:34:19 51°14.204 2°49.553 17.574886 4.327251 32.955859 15.63523
2004-06-11 07:34:23 51°14.204 2°49.549 17.574886 4.327251 32.955859 15.63523
2004-06-11 07:34:29 51°14.203 2°49.543 17.570696 4.327884 32.963013 15.63523
2004-06-11 07:34:34 51°14.202 2°49.538 17.570989 4.327146 32.957908 15.702648
2004-06-11 07:34:39 51°14.202 2°49.533 17.572623 4.327357 32.959703 15.668939
2004-06-11 07:34:45 51°14.202 2°49.527 17.570989 4.327462 32.96119 15.63523
2004-06-11 07:34:49 51°14.201 2°49.524 17.569481 4.327673 32.963576 15.567811
2004-06-11 07:34:53 51°14.201 2°49.52 17.569481 4.327673 32.963576 15.567811
2004-06-11 07:34:59 51°14.201 2°49.514 17.570989 4.327673 32.964755 15.567811
2004-06-11 07:35:03 51°14.201 2°49.51 17.568014 4.327673 32.966524 15.63523
2004-06-11 07:35:10 51°14.201 2°49.503 17.570528 4.327989 32.968628 15.668939
2004-06-11 07:35:14 51°14.202 2°49.499 17.570109 4.327989 32.969217 15.63523
2004-06-11 07:35:19 51°14.202 2°49.494 17.572037 4.328095 32.970705 15.668939
2004-06-11 07:35:23 51°14.202 2°49.49 17.572037 4.328095 32.970705 15.668939
2004-06-11 07:35:26 51°14.203 2°49.487 17.569188 4.3282 32.972193 15.567811
2004-06-11 07:35:34 51°14.204 2°49.479 17.564578 4.328095 32.971295 15.60152
2004-06-11 07:35:39 51°14.205 2°49.473 17.571953 4.328517 32.974297 15.567811
2004-06-11 07:35:42 51°14.205 2°49.471 17.569858 4.328517 32.973707 15.567811
2004-06-11 07:35:49 51°14.207 2°49.465 17.566715 4.328517 32.974297 15.500392
2004-06-11 07:35:54 51°14.208 2°49.461 17.566715 4.328517 32.974297 15.500392
2004-06-11 07:35:59 51°14.209 2°49.457 17.568391 4.328517 32.974887 15.534101
2004-06-11 07:36:03 51°14.21 2°49.454 17.561855 4.328833 32.979351 15.500392
2004-06-11 07:36:09 51°14.211 2°49.45 17.562483 4.329255 32.981763 15.466683
2004-06-11 07:36:13 51°14.213 2°49.448 17.564578 4.329044 32.978787 15.432973
2004-06-11 07:36:18 51°14.215 2°49.445 17.560807 4.32915 32.980275 15.432973
2004-06-11 07:36:23 51°14.216 2°49.443 17.560807 4.32915 32.980275 15.432973
2004-06-11 07:36:30 51°14.219 2°49.44 17.556407 4.329255 32.982943 15.466683
2004-06-11 07:36:34 51°14.22 2°49.438 17.561561 4.329044 32.982327 15.432973
2004-06-11 07:36:39 51°14.222 2°49.437 17.55385 4.328833 32.981121 15.432973
2004-06-11 07:36:43 51°14.224 2°49.435 17.550791 4.32915 32.984405 15.432973
2004-06-11 07:36:50 51°14.227 2°49.433 17.550204 4.328833 32.984071 15.500392
2004-06-11 07:36:54 51°14.228 2°49.432 17.550204 4.328833 32.984071 15.500392
2004-06-11 07:36:59 51°14.23 2°49.431 17.553263 4.328833 32.984661 15.500392
2004-06-11 07:37:02 51°14.232 2°49.431 17.554018 4.32915 32.987946 15.534101
2004-06-11 07:37:10 51°14.235 2°49.429 17.554479 4.329255 32.990615 15.567811
2004-06-11 07:37:14 51°14.237 2°49.429 17.54924 4.329255 32.992976 15.60152
2004-06-11 07:37:20 51°14.239 2°49.428 17.547941 4.328939 32.992053 15.567811
2004-06-11 07:37:23 51°14.24 2°49.428 17.547941 4.328939 32.992053 15.567811
2004-06-11 07:37:30 51°14.243 2°49.427 17.548486 4.328728 32.989665 15.60152
2004-06-11 07:37:35 51°14.245 2°49.427 17.550204 4.328622 32.988767 15.567811
2004-06-11 07:37:40 51°14.247 2°49.427 17.548611 4.328622 32.988767 15.567811
2004-06-11 07:37:44 51°14.249 2°49.426 17.548611 4.328833 32.992335 15.60152
2004-06-11 07:37:49 51°14.252 2°49.425 17.550372 4.329361 32.997418 15.567811
2004-06-11 07:37:55 51°14.255 2°49.423 17.550372 4.329361 32.997418 15.567811
2004-06-11 07:37:59 51°14.258 2°49.421 17.551042 4.32915 32.996211 15.60152
2004-06-11 07:38:03 51°14.261 2°49.418 17.54945 4.32915 32.995621 15.500392
2004-06-11 07:38:10 51°14.268 2°49.415 17.546013 4.329255 32.99711 15.534101
2004-06-11 07:38:14 51°14.273 2°49.413 17.555736 4.329255 32.99711 15.500392
2004-06-11 07:38:19 51°14.28 2°49.413 17.554605 4.329255 32.99711 15.466683
2004-06-11 07:38:26 51°14.29 2°49.414 17.554605 4.329255 32.99711 15.466683
2004-06-11 07:38:29 51°14.295 2°49.415 17.545929 4.328623 32.99231 15.500392
2004-06-11 07:38:34 51°14.303 2°49.419 17.549533 4.32915 32.996802 15.432973
2004-06-11 07:38:39 51°14.311 2°49.425 17.547941 4.329255 32.9977 15.500392
2004-06-11 07:38:42 51°14.315 2°49.43 17.538929 4.329466 32.998316 15.399264
2004-06-11 07:38:49 51°14.325 2°49.443 17.546851 4.32915 32.99444 15.432973
2004-06-11 07:38:54 51°14.332 2°49.454 17.546851 4.32915 32.99444 15.432973
2004-06-11 07:38:58 51°14.336 2°49.463 17.537168 4.329361 32.997418 15.399264
2004-06-11 07:39:03 51°14.34 2°49.476 17.539641 4.329361 32.996237 15.432973
2004-06-11 07:39:09 51°14.345 2°49.49 17.533437 4.329572 32.999215 15.500392
2004-06-11 07:39:14 51°14.348 2°49.501 17.534066 4.329677 33.002476 15.466683
2004-06-11 07:39:18 51°14.351 2°49.51 17.525891 4.329255 33.000063 15.534101
2004-06-11 07:39:23 51°14.354 2°49.521 17.525891 4.329255 33.000063 15.534101
2004-06-11 07:39:29 51°14.357 2°49.534 17.519895 4.328834 32.99765 15.500392
2004-06-11 07:39:34 51°14.36 2°49.545 17.522662 4.328095 32.993132 15.399264
2004-06-11 07:39:39 51°14.362 2°49.556 17.526645 4.32683 32.985892 15.365554
2004-06-11 07:39:43 51°14.364 2°49.564 17.514024 4.326303 32.984942 15.298136
2004-06-11 07:39:49 51°14.366 2°49.576 17.51805 4.325775 32.984583 15.197007
2004-06-11 07:39:54 51°14.368 2°49.586 17.51805 4.325775 32.984583 15.197007
2004-06-11 07:39:59 51°14.37 2°49.595 17.518721 4.325037 32.981244 15.163298
2004-06-11 07:40:05 51°14.372 2°49.607 17.513102 4.324193 32.974644 15.095879
2004-06-11 07:40:09 51°14.373 2°49.614 17.512557 4.324193 32.974644 15.02846
2004-06-11 07:40:14 51°14.375 2°49.624 17.515618 4.324088 32.977289 15.02846
2004-06-11 07:40:19 51°14.377 2°49.633 17.512515 4.323983 32.976981 14.994751
2004-06-11 07:40:22 51°14.377 2°49.638 17.512515 4.323983 32.976981 14.994751
2004-06-11 07:40:29 51°14.38 2°49.651 17.513815 4.324194 32.97937 14.927332
2004-06-11 07:40:34 51°14.381 2°49.66 17.513102 4.323877 32.977854 14.927332
2004-06-11 07:40:39 51°14.383 2°49.668 17.515869 4.323877 32.978445 14.893623
2004-06-11 07:40:45 51°14.385 2°49.678 17.513395 4.323983 32.978753 14.961042
2004-06-11 07:40:50 51°14.386 2°49.687 17.51914 4.324088 32.980834 14.859913
2004-06-11 07:40:54 51°14.387 2°49.693 17.51914 4.324088 32.980834 14.859913
2004-06-11 07:40:59 51°14.389 2°49.701 17.516079 4.323772 32.978137 14.826204
2004-06-11 07:41:05 51°14.39 2°49.711 17.519098 4.324088 32.980243 14.927332
2004-06-11 07:41:09 51°14.391 2°49.717 17.518847 4.323983 32.979935 14.893623
2004-06-11 07:41:14 51°14.393 2°49.726 17.524926 4.323772 32.978728 14.927332
2004-06-11 07:41:19 51°14.394 2°49.734 17.521614 4.323983 32.978753 14.792494
2004-06-11 07:41:23 51°14.395 2°49.74 17.521614 4.323983 32.978753 14.792494
2004-06-11 07:41:29 51°14.397 2°49.749 17.523417 4.323983 32.978753 14.859913
2004-06-11 07:41:34 51°14.397 2°49.757 17.526017 4.324194 32.97937 14.893623
2004-06-11 07:41:38 51°14.398 2°49.764 17.526352 4.324299 32.979087 14.961042
2004-06-11 07:41:43 51°14.399 2°49.771 17.531131 4.32451 32.979113 14.994751
2004-06-11 07:41:49 51°14.4 2°49.781 17.529958 4.32451 32.978522 14.961042
2004-06-11 07:41:54 51°14.401 2°49.788 17.529958 4.32451 32.978522 14.961042
2004-06-11 07:41:59 51°14.402 2°49.796 17.525052 4.324721 32.979138 14.859913
2004-06-11 07:42:03 51°14.403 2°49.802 17.532054 4.324721 32.979138 14.961042
2004-06-11 07:42:09 51°14.404 2°49.811 17.524633 4.324932 32.979164 14.961042
2004-06-11 07:42:14 51°14.405 2°49.819 17.524004 4.325143 32.980371 14.961042
2004-06-11 07:42:19 51°14.406 2°49.826 17.523333 4.325037 32.978291 14.994751
2004-06-11 07:42:23 51°14.407 2°49.832 17.523333 4.325037 32.978291 14.994751
2004-06-11 07:42:29 51°14.409 2°49.841 17.527232 4.325353 32.981578 14.961042
2004-06-11 07:42:34 51°14.41 2°49.848 17.526939 4.325248 32.980679 14.994751
2004-06-11 07:42:39 51°14.411 2°49.856 17.52761 4.325037 32.978882 15.06217
2004-06-11 07:42:43 51°14.412 2°49.861 17.528364 4.325143 32.982143 15.095879
2004-06-11 07:42:49 51°14.413 2°49.87 17.527903 4.325248 32.981861 15.06217
2004-06-11 07:42:54 51°14.415 2°49.877 17.527903 4.325248 32.981861 15.06217
2004-06-11 07:42:59 51°14.416 2°49.884 17.533647 4.325037 32.980063 15.129589
2004-06-11 07:43:03 51°14.417 2°49.89 17.534569 4.325037 32.978882 15.163298
2004-06-11 07:43:09 51°14.419 2°49.898 17.533311 4.324721 32.976776 15.197007
2004-06-11 07:43:14 51°14.42 2°49.905 17.533982 4.324932 32.977392 15.163298
2004-06-11 07:43:19 51°14.422 2°49.912 17.535701 4.325037 32.977701 15.163298
2004-06-11 07:43:23 51°14.423 2°49.917 17.535701 4.325037 32.977701 15.163298
2004-06-11 07:43:29 51°14.425 2°49.926 17.539432 4.325037 32.97711 15.197007
2004-06-11 07:43:34 51°14.427 2°49.932 17.538761 4.324721 32.972642 15.163298
2004-06-11 07:43:39 51°14.429 2°49.939 17.53918 4.324404 32.969356 15.230717
2004-06-11 07:43:43 51°14.43 2°49.944 17.546767 4.324826 32.97236 15.230717
2004-06-11 07:43:49 51°14.432 2°49.952 17.543917 4.32451 32.968484 15.230717
2004-06-11 07:43:53 51°14.433 2°49.958 17.543917 4.32451 32.968484 15.230717
2004-06-11 07:43:59 51°14.435 2°49.966 17.54421 4.324404 32.965814 15.298136
2004-06-11 07:44:05 51°14.437 2°49.973 17.545174 4.324404 32.964634 15.298136
2004-06-11 07:44:09 51°14.439 2°49.979 17.547354 4.324615 32.965251 15.298136
2004-06-11 07:44:14 51°14.441 2°49.985 17.55012 4.32451 32.963172 15.230717
2004-06-11 07:44:18 51°14.442 2°49.991 17.550791 4.324615 32.96348 15.331845
2004-06-11 07:44:24 51°14.444 2°49.998 17.550791 4.324615 32.96348 15.331845
2004-06-11 07:44:29 51°14.446 2°50.005 17.552509 4.324615 32.96289 15.331845
2004-06-11 07:44:34 51°14.448 2°50.012 17.554186 4.324615 32.96171 15.331845
2004-06-11 07:44:39 51°14.45 2°50.018 17.553138 4.324931 32.963225 15.298136
2004-06-11 07:44:43 51°14.452 2°50.023 17.554479 4.32472 32.958479 15.331845
2004-06-11 07:44:49 51°14.454 2°50.031 17.558586 4.324509 32.956093 15.331845
2004-06-11 07:44:54 51°14.456 2°50.038 17.558586 4.324509 32.956093 15.331845
2004-06-11 07:44:58 51°14.457 2°50.043 17.55934 4.324931 32.957916 15.365554
2004-06-11 07:45:03 51°14.459 2°50.05 17.561561 4.325037 32.958225 15.399264
2004-06-11 07:45:10 51°14.462 2°50.059 17.563908 4.325142 32.958533 15.331845
2004-06-11 07:45:14 51°14.464 2°50.064 17.567386 4.325142 32.957943 15.331845
2004-06-11 07:45:19 51°14.466 2°50.071 17.564117 4.325142 32.956174 15.331845
2004-06-11 07:45:23 51°14.468 2°50.076 17.564117 4.325142 32.956174 15.331845
2004-06-11 07:45:29 51°14.47 2°50.084 17.567763 4.325248 32.955893 15.331845
2004-06-11 07:45:34 51°14.472 2°50.091 17.569732 4.325037 32.952917 15.331845
2004-06-11 07:45:39 51°14.474 2°50.098 17.571157 4.325142 32.952636 15.230717
2004-06-11 07:45:43 51°14.475 2°50.103 17.576771 4.325142 32.950278 15.298136
2004-06-11 07:45:50 51°14.478 2°50.113 17.574718 4.325248 32.951176 15.264426
2004-06-11 07:45:53 51°14.478 2°50.117 17.574718 4.325248 32.951176 15.264426
2004-06-11 07:45:59 51°14.481 2°50.125 17.575053 4.325142 32.949099 15.298136
2004-06-11 07:46:05 51°14.483 2°50.133 17.575053 4.325142 32.947331 15.264426
2004-06-11 07:46:09 51°14.485 2°50.138 17.574718 4.325142 32.944974 15.264426
2004-06-11 07:46:14 51°14.486 2°50.145 17.575011 4.325036 32.942898 15.230717
2004-06-11 07:46:19 51°14.488 2°50.151 17.578237 4.324931 32.941411 15.298136
2004-06-11 07:46:23 51°14.49 2°50.157 17.578237 4.324931 32.941411 15.298136
2004-06-11 07:46:29 51°14.492 2°50.165 17.578154 4.32472 32.937848 15.197007
2004-06-11 07:46:33 51°14.494 2°50.17 17.576101 4.325036 32.940541 15.264426
2004-06-11 07:46:38 51°14.496 2°50.177 17.577358 4.324825 32.938157 15.230717
2004-06-11 07:46:43 51°14.498 2°50.183 17.581966 4.325036 32.940541 15.298136
2004-06-11 07:46:49 51°14.5 2°50.191 17.578531 4.324509 32.934286 15.298136
2004-06-11 07:46:54 51°14.502 2°50.198 17.578531 4.324509 32.934286 15.298136
2004-06-11 07:46:59 51°14.504 2°50.204 17.581547 4.324509 32.934286 15.264426
2004-06-11 07:47:03 51°14.506 2°50.21 17.583851 4.324615 32.935772 15.298136
2004-06-11 07:47:09 51°14.508 2°50.218 17.583474 4.324404 32.933388 15.298136
2004-06-11 07:47:15 51°14.51 2°50.226 17.584061 4.324087 32.930695 15.331845
2004-06-11 07:47:18 51°14.511 2°50.23 17.585192 4.324193 32.929826 15.264426
2004-06-11 07:47:23 51°14.513 2°50.236 17.585192 4.324193 32.929826 15.264426
2004-06-11 07:47:29 51°14.516 2°50.244 17.584228 4.324404 32.930444 15.331845
2004-06-11 07:47:34 51°14.518 2°50.251 17.587202 4.324404 32.929266 15.298136
2004-06-11 07:47:39 51°14.52 2°50.258 17.589464 4.324404 32.928677 15.331845
2004-06-11 07:47:43 51°14.521 2°50.263 17.587873 4.324087 32.926573 15.298136
2004-06-11 07:47:50 51°14.525 2°50.272 17.587202 4.324087 32.925396 15.298136
2004-06-11 07:47:54 51°14.526 2°50.277 17.587202 4.324087 32.925396 15.298136
2004-06-11 07:47:59 51°14.528 2°50.284 17.587831 4.324404 32.926911 15.298136
2004-06-11 07:48:03 51°14.53 2°50.289 17.590721 4.323982 32.922144 15.331845
2004-06-11 07:48:10 51°14.533 2°50.298 17.584898 4.324403 32.924557 15.264426
2004-06-11 07:48:14 51°14.535 2°50.303 17.587956 4.323771 32.919172 15.331845
2004-06-11 07:48:19 51°14.537 2°50.31 17.589297 4.324298 32.923659 15.331845
2004-06-11 07:48:23 51°14.538 2°50.315 17.589297 4.324298 32.923659 15.331845
2004-06-11 07:48:29 51°14.541 2°50.323 17.588124 4.324298 32.924248 15.399264
2004-06-11 07:48:34 51°14.543 2°50.329 17.591852 4.324087 32.921864 15.365554
2004-06-11 07:48:38 51°14.544 2°50.334 17.587831 4.323982 32.920967 15.365554
2004-06-11 07:48:43 51°14.547 2°50.341 17.589213 4.323876 32.920069 15.365554
2004-06-11 07:48:49 51°14.549 2°50.349 17.590428 4.323876 32.918892 15.432973
2004-06-11 07:48:53 51°14.551 2°50.354 17.590428 4.323876 32.918892 15.432973
2004-06-11 07:48:59 51°14.554 2°50.362 17.592313 4.323665 32.916509 15.466683
2004-06-11 07:49:03 51°14.555 2°50.367 17.594826 4.323454 32.915303 15.466683
2004-06-11 07:49:09 51°14.558 2°50.375 17.591643 4.323243 32.914097 15.466683
2004-06-11 07:49:13 51°14.56 2°50.38 17.590051 4.323349 32.914406 15.466683
2004-06-11 07:49:19 51°14.562 2°50.388 17.591182 4.323454 32.915303 15.500392
2004-06-11 07:49:23 51°14.564 2°50.393 17.591182 4.323454 32.915303 15.500392
2004-06-11 07:49:29 51°14.566 2°50.401 17.590972 4.323032 32.910537 15.534101
2004-06-11 07:49:34 51°14.568 2°50.408 17.595203 4.323032 32.909949 15.500392
2004-06-11 07:49:39 51°14.57 2°50.414 17.593946 4.323032 32.90936 15.500392
2004-06-11 07:49:43 51°14.571 2°50.42 17.594784 4.322716 32.907845 15.534101
2004-06-11 07:49:49 51°14.574 2°50.427 17.596334 4.322927 32.908463 15.60152
2004-06-11 07:49:53 51°14.575 2°50.433 17.596334 4.322927 32.908463 15.60152
2004-06-11 07:49:59 51°14.577 2°50.441 17.596878 4.322611 32.906948 15.60152
2004-06-11 07:50:03 51°14.579 2°50.446 17.597842 4.322716 32.90608 15.60152
2004-06-11 07:50:10 51°14.581 2°50.455 17.597842 4.322611 32.904595 15.567811
2004-06-11 07:50:14 51°14.583 2°50.46 17.602239 4.3224 32.902801 15.534101
2004-06-11 07:50:19 51°14.585 2°50.467 17.603454 4.321767 32.895653 15.668939
2004-06-11 07:50:23 51°14.586 2°50.472 17.603454 4.321767 32.895653 15.668939
2004-06-11 07:50:29 51°14.588 2°50.481 17.60069 4.321556 32.893859 15.668939
2004-06-11 07:50:34 51°14.59 2°50.487 17.602909 4.321134 32.889095 15.63523
2004-06-11 07:50:39 51°14.592 2°50.494 17.606385 4.321134 32.889683 15.668939
2004-06-11 07:50:43 51°14.593 2°50.499 17.600522 4.320712 32.883744 15.702648
2004-06-11 07:50:49 51°14.595 2°50.508 17.603747 4.320607 32.881671 15.60152
2004-06-11 07:50:54 51°14.597 2°50.514 17.603747 4.320607 32.881671 15.60152
2004-06-11 07:50:59 51°14.599 2°50.521 17.605799 4.320185 32.878083 15.63523
2004-06-11 07:51:03 51°14.6 2°50.526 17.606385 4.319974 32.875702 15.702648
2004-06-11 07:51:09 51°14.602 2°50.535 17.607432 4.320185 32.875733 15.668939
2004-06-11 07:51:14 51°14.605 2°50.541 17.607767 4.319763 32.872733 15.702648
2004-06-11 07:51:18 51°14.606 2°50.547 17.612164 4.319446 32.870042 15.63523
2004-06-11 07:51:23 51°14.608 2°50.553 17.612164 4.319446 32.870042 15.63523
2004-06-11 07:51:29 51°14.61 2°50.562 17.610405 4.319236 32.867661 15.736358
2004-06-11 07:51:34 51°14.612 2°50.568 17.615305 4.31913 32.86559 15.736358
2004-06-11 07:51:39 51°14.614 2°50.575 17.613127 4.319341 32.866209 15.736358
2004-06-11 07:51:45 51°14.616 2°50.583 17.614467 4.319236 32.864725 15.770067
2004-06-11 07:51:49 51°14.617 2°50.589 17.614718 4.318814 32.859964 15.736358
2004-06-11 07:51:54 51°14.619 2°50.596 17.614718 4.318814 32.859964 15.736358
2004-06-11 07:51:59 51°14.621 2°50.603 17.613797 4.318919 32.860274 15.770067
2004-06-11 07:52:05 51°14.623 2°50.611 17.616435 4.318919 32.8591 15.803777
2004-06-11 07:52:09 51°14.625 2°50.616 17.616938 4.318603 32.854649 15.837486
2004-06-11 07:52:14 51°14.627 2°50.623 17.621669 4.318075 32.850752 15.803777
2004-06-11 07:52:19 51°14.629 2°50.63 17.618445 4.318286 32.851959 15.837486
2004-06-11 07:52:23 51°14.63 2°50.636 17.618445 4.318286 32.851959 15.837486
2004-06-11 07:52:29 51°14.632 2°50.644 17.622255 4.318075 32.850166 15.871195
2004-06-11 07:52:34 51°14.634 2°50.651 17.620497 4.318075 32.848405 15.972324
2004-06-11 07:52:39 51°14.636 2°50.657 17.623176 4.318075 32.847819 15.871195
2004-06-11 07:52:43 51°14.637 2°50.663 17.62439 4.31797 32.845749 15.904905
2004-06-11 07:52:48 51°14.639 2°50.67 17.627782 4.317653 32.842472 15.871195
2004-06-11 07:52:54 51°14.641 2°50.678 17.627782 4.317653 32.842472 15.871195
2004-06-11 07:52:59 51°14.643 2°50.685 17.628619 4.317548 32.841576 15.904905
2004-06-11 07:53:03 51°14.644 2°50.69 17.632052 4.317337 32.839783 15.871195
2004-06-11 07:53:08 51°14.645 2°50.697 17.633056 4.317232 32.837127 15.837486
2004-06-11 07:53:14 51°14.647 2°50.705 17.634521 4.317232 32.835954 15.871195
2004-06-11 07:53:19 51°14.649 2°50.712 17.635735 4.31681 32.831196 15.837486